Observation data for Tahoka on 01/21/2019      Previous  Date  Next       Current Mesonet Observations  Soil Data  Daily Summary Page  Observations in Plain Language
KTAS 210600Z 20011KT 07/M03 A3001 RMK A01 T00661027  RH  052%=      5-min Rain = 0
KTAS 210601Z 21011KT 07/M03 A3001 RMK A01 T00651026  RH  052%=      5-min Rain = 0
KTAS 210602Z 21013KT 07/M03 A3001 RMK A01 T00651026  RH  052%=      5-min Rain = 0
KTAS 210603Z 20011KT 07/M03 A3001 RMK A01 T00651026  RH  052%=      5-min Rain = 0
KTAS 210604Z 21011KT 07/M03 A3001 RMK A01 T00651026  RH  052%=      5-min Rain = 0
KTAS 210605Z 20012KT 06/M03 A3001 RMK A01 T00641026  RH  052%=      5-min Rain = 0
KTAS 210606Z 20011KT 07/M03 A3001 RMK A01 T00651026  RH  052%=      5-min Rain = 0
KTAS 210607Z 20010KT 06/M03 A3001 RMK A01 T00641026  RH  052%=      5-min Rain = 0
KTAS 210608Z 21012KT 06/M03 A3001 RMK A01 T00631027  RH  053%=      5-min Rain = 0
KTAS 210609Z 20012KT 06/M03 A3001 RMK A01 T00621026  RH  053%=      5-min Rain = 0
KTAS 210610Z 21012KT 06/M03 A3001 RMK A01 T00621026  RH  053%=      5-min Rain = 0
KTAS 210611Z 21012KT 06/M03 A3001 RMK A01 T00621026  RH  053%=      5-min Rain = 0
KTAS 210612Z 21012KT 06/M03 A3001 RMK A01 T00631026  RH  053%=      5-min Rain = 0
KTAS 210613Z 21012KT 06/M03 A3001 RMK A01 T00631026  RH  053%=      5-min Rain = 0
KTAS 210614Z 20012KT 06/M03 A3001 RMK A01 T00621026  RH  053%=      5-min Rain = 0
KTAS 210615Z 20011KT 06/M03 A3001 RMK A01 T00611026  RH  053%=      5-min Rain = 0
KTAS 210616Z 20011KT 06/M03 A3001 RMK A01 T00611026  RH  053%=      5-min Rain = 0
KTAS 210617Z 20011KT 06/M03 A3001 RMK A01 T00611027  RH  053%=      5-min Rain = 0
KTAS 210618Z 20011KT 06/M03 A3001 RMK A01 T00611026  RH  054%=      5-min Rain = 0
KTAS 210619Z 21012KT 06/M03 A3001 RMK A01 T00611026  RH  054%=      5-min Rain = 0
KTAS 210620Z 20011KT 06/M03 A3001 RMK A01 T00611026  RH  054%=      5-min Rain = 0
KTAS 210621Z 20010KT 06/M03 A3001 RMK A01 T00601026  RH  054%=      5-min Rain = 0
KTAS 210622Z 20011KT 06/M03 A3001 RMK A01 T00591027  RH  054%=      5-min Rain = 0
KTAS 210623Z 21012KT 06/M03 A30 RMK A01 T00591026  RH  054%=      5-min Rain = 0
KTAS 210624Z 21012KT 06/M03 A30 RMK A01 T00601026  RH  054%=      5-min Rain = 0
KTAS 210625Z 21012KT 06/M03 A30 RMK A01 T00601026  RH  054%=      5-min Rain = 0
KTAS 210626Z 20012KT 06/M03 A30 RMK A01 T00601026  RH  054%=      5-min Rain = 0
KTAS 210627Z 21012KT 06/M03 A30 RMK A01 T00601026  RH  054%=      5-min Rain = 0
KTAS 210628Z 21012KT 06/M03 A30 RMK A01 T00601026  RH  054%=      5-min Rain = 0
KTAS 210629Z 21012KT 06/M03 A30 RMK A01 T00601026  RH  054%=      5-min Rain = 0
KTAS 210630Z 21012KT 06/M03 A30 RMK A01 T00591026  RH  054%=      5-min Rain = 0
KTAS 210631Z 21011KT 06/M03 A30 RMK A01 T00591026  RH  054%=      5-min Rain = 0
KTAS 210632Z 20012KT 06/M03 A30 RMK A01 T00591026  RH  054%=      5-min Rain = 0
KTAS 210633Z 20012KT 06/M03 A30 RMK A01 T00591026  RH  054%=      5-min Rain = 0
KTAS 210634Z 21012KT 06/M03 A30 RMK A01 T00601025  RH  054%=      5-min Rain = 0
KTAS 210635Z 20012KT 06/M03 A30 RMK A01 T00601025  RH  054%=      5-min Rain = 0
KTAS 210636Z 21012KT 06/M03 A30 RMK A01 T00601026  RH  054%=      5-min Rain = 0
KTAS 210637Z 21013KT 06/M03 A30 RMK A01 T00601025  RH  055%=      5-min Rain = 0
KTAS 210638Z 21013KT 06/M03 A30 RMK A01 T00601025  RH  054%=      5-min Rain = 0
KTAS 210639Z 21013KT 06/M03 A30 RMK A01 T00611025  RH  054%=      5-min Rain = 0
KTAS 210640Z 21013KT 06/M03 A30 RMK A01 T00611025  RH  054%=      5-min Rain = 0
KTAS 210641Z 21011KT 06/M03 A30 RMK A01 T00611025  RH  054%=      5-min Rain = 0
KTAS 210642Z 20012KT 06/M03 A30 RMK A01 T00611025  RH  054%=      5-min Rain = 0
KTAS 210643Z 21013KT 06/M02 A30 RMK A01 T00611024  RH  054%=      5-min Rain = 0
KTAS 210644Z 21013KT 06/M02 A30 RMK A01 T00621024  RH  054%=      5-min Rain = 0
KTAS 210645Z 20011KT 06/M02 A30 RMK A01 T00621024  RH  054%=      5-min Rain = 0
KTAS 210646Z 20012KT 06/M02 A30 RMK A01 T00621024  RH  054%=      5-min Rain = 0
KTAS 210647Z 20011KT 06/M02 A30 RMK A01 T00621024  RH  054%=      5-min Rain = 0
KTAS 210648Z 20011KT 06/M02 A30 RMK A01 T00611024  RH  054%=      5-min Rain = 0
KTAS 210649Z 20010KT 06/M02 A30 RMK A01 T00601024  RH  055%=      5-min Rain = 0
KTAS 210650Z 20010KT 06/M02 A30 RMK A01 T00591024  RH  055%=      5-min Rain = 0
KTAS 210651Z 20011KT 06/M02 A30 RMK A01 T00581024  RH  056%=      5-min Rain = 0
KTAS 210652Z 20010KT 06/M02 A30 RMK A01 T00591023  RH  056%=      5-min Rain = 0
KTAS 210653Z 20010KT 06/M02 A30 RMK A01 T00581023  RH  056%=      5-min Rain = 0
KTAS 210654Z 20011KT 06/M02 A30 RMK A01 T00581023  RH  056%=      5-min Rain = 0
KTAS 210655Z 20011KT 06/M02 A30 RMK A01 T00581023  RH  056%=      5-min Rain = 0
KTAS 210656Z 20011KT 06/M02 A30 RMK A01 T00581023  RH  056%=      5-min Rain = 0
KTAS 210657Z 20011KT 06/M02 A30 RMK A01 T00571023  RH  056%=      5-min Rain = 0
KTAS 210658Z 20012KT 06/M02 A30 RMK A01 T00571023  RH  056%=      5-min Rain = 0
KTAS 210659Z 20010KT 06/M02 A30 RMK A01 T00581023  RH  056%=      5-min Rain = 0
KTAS 210700Z 20011KT 06/M02 A30 RMK A01 T00571023  RH  056%=      5-min Rain = 0
KTAS 210701Z 20011KT 06/M02 A30 RMK A01 T00561023  RH  057%=      5-min Rain = 0
KTAS 210702Z 20010KT 06/M02 A30 RMK A01 T00561023  RH  057%=      5-min Rain = 0
KTAS 210703Z 20010KT 06/M02 A30 RMK A01 T00551024  RH  057%=      5-min Rain = 0
KTAS 210704Z 20011KT 05/M02 A30 RMK A01 T00541023  RH  057%=      5-min Rain = 0
KTAS 210705Z 20011KT 06/M02 A2999 RMK A01 T00551023  RH  057%=      5-min Rain = 0
KTAS 210706Z 20010KT 06/M02 A2999 RMK A01 T00551023  RH  057%=      5-min Rain = 0
KTAS 210707Z 20010KT 05/M02 A2999 RMK A01 T00541023  RH  057%=      5-min Rain = 0
KTAS 210708Z 19011KT 05/M02 A2999 RMK A01 T00541023  RH  058%=      5-min Rain = 0
KTAS 210709Z 19009KT 05/M02 A30 RMK A01 T00531023  RH  058%=      5-min Rain = 0
KTAS 210710Z 20010KT 05/M02 A30 RMK A01 T00531023  RH  058%=      5-min Rain = 0
KTAS 210711Z 20011KT 05/M02 A30 RMK A01 T00531023  RH  058%=      5-min Rain = 0
KTAS 210712Z 20011KT 05/M02 A30 RMK A01 T00531022  RH  058%=      5-min Rain = 0
KTAS 210713Z 21010KT 05/M02 A2999 RMK A01 T00541022  RH  058%=      5-min Rain = 0
KTAS 210714Z 20010KT 05/M02 A30 RMK A01 T00541022  RH  058%=      5-min Rain = 0
KTAS 210715Z 20011KT 05/M02 A30 RMK A01 T00531023  RH  058%=      5-min Rain = 0
KTAS 210716Z 20010KT 05/M02 A30 RMK A01 T00541022  RH  058%=      5-min Rain = 0
KTAS 210717Z 20011KT 06/M02 A30 RMK A01 T00551022  RH  058%=      5-min Rain = 0
KTAS 210718Z 20010KT 06/M02 A30 RMK A01 T00551022  RH  058%=      5-min Rain = 0
KTAS 210719Z 20010KT 06/M02 A2999 RMK A01 T00551022  RH  058%=      5-min Rain = 0
KTAS 210720Z 21010KT 05/M02 A2999 RMK A01 T00541022  RH  058%=      5-min Rain = 0
KTAS 210721Z 20010KT 05/M02 A2999 RMK A01 T00541022  RH  058%=      5-min Rain = 0
KTAS 210722Z 20008KT 06/M02 A2999 RMK A01 T00551022  RH  058%=      5-min Rain = 0
KTAS 210723Z 20008KT 05/M02 A2999 RMK A01 T00541022  RH  058%=      5-min Rain = 0
KTAS 210724Z 20008KT 05/M02 A2999 RMK A01 T00531022  RH  058%=      5-min Rain = 0
KTAS 210725Z 20008KT 05/M02 A2999 RMK A01 T00521022  RH  059%=      5-min Rain = 0
KTAS 210726Z 20010KT 05/M02 A2999 RMK A01 T00521022  RH  059%=      5-min Rain = 0
KTAS 210727Z 20007KT 05/M02 A2999 RMK A01 T00531022  RH  059%=      5-min Rain = 0
KTAS 210728Z 21008KT 05/M02 A2999 RMK A01 T00511023  RH  059%=      5-min Rain = 0
KTAS 210729Z 21009KT 05/M02 A2999 RMK A01 T00511022  RH  059%=      5-min Rain = 0
KTAS 210730Z 20009KT 05/M02 A2999 RMK A01 T00521022  RH  059%=      5-min Rain = 0
KTAS 210731Z 20009KT 05/M02 A2999 RMK A01 T00521022  RH  059%=      5-min Rain = 0
KTAS 210732Z 21010KT 05/M02 A2999 RMK A01 T00531022  RH  059%=      5-min Rain = 0
KTAS 210733Z 21010KT 05/M02 A2999 RMK A01 T00531022  RH  059%=      5-min Rain = 0
KTAS 210734Z 21010KT 05/M02 A2999 RMK A01 T00531022  RH  058%=      5-min Rain = 0
KTAS 210735Z 21010KT 05/M02 A2999 RMK A01 T00531022  RH  058%=      5-min Rain = 0
KTAS 210736Z 21010KT 05/M02 A2999 RMK A01 T00531022  RH  058%=      5-min Rain = 0
KTAS 210737Z 21010KT 05/M02 A2999 RMK A01 T00531023  RH  058%=      5-min Rain = 0
KTAS 210738Z 21010KT 05/M02 A2999 RMK A01 T00531023  RH  058%=      5-min Rain = 0
KTAS 210739Z 21011KT 05/M02 A2999 RMK A01 T00531022  RH  058%=      5-min Rain = 0
KTAS 210740Z 20011KT 05/M02 A2999 RMK A01 T00531022  RH  058%=      5-min Rain = 0
KTAS 210741Z 21010KT 05/M02 A2998 RMK A01 T00531023  RH  058%=      5-min Rain = 0
KTAS 210742Z 21010KT 05/M02 A2998 RMK A01 T00521023  RH  058%=      5-min Rain = 0
KTAS 210743Z 21011KT 05/M02 A2998 RMK A01 T00521023  RH  058%=      5-min Rain = 0
KTAS 210744Z 20010KT 05/M02 A2998 RMK A01 T00521023  RH  059%=      5-min Rain = 0
KTAS 210745Z 21010KT 05/M02 A2998 RMK A01 T00511023  RH  059%=      5-min Rain = 0
KTAS 210746Z 21011KT 05/M02 A2998 RMK A01 T00511023  RH  059%=      5-min Rain = 0
KTAS 210747Z 21010KT 05/M02 A2998 RMK A01 T00511023  RH  059%=      5-min Rain = 0
KTAS 210748Z 21010KT 05/M02 A2998 RMK A01 T00511023  RH  059%=      5-min Rain = 0
KTAS 210749Z 20010KT 05/M02 A2998 RMK A01 T00501023  RH  059%=      5-min Rain = 0
KTAS 210750Z 21010KT 05/M02 A2998 RMK A01 T00501023  RH  059%=      5-min Rain = 0
KTAS 210751Z 20010KT 05/M02 A2998 RMK A01 T00501023  RH  059%=      5-min Rain = 0
KTAS 210752Z 20011KT 05/M02 A2998 RMK A01 T00491023  RH  060%=      5-min Rain = 0
KTAS 210753Z 21010KT 05/M02 A2998 RMK A01 T00501022  RH  060%=      5-min Rain = 0
KTAS 210754Z 21011KT 05/M02 A2998 RMK A01 T00501022  RH  060%=      5-min Rain = 0
KTAS 210755Z 21011KT 05/M02 A2998 RMK A01 T00501022  RH  060%=      5-min Rain = 0
KTAS 210756Z 20011KT 05/M02 A2998 RMK A01 T00501022  RH  060%=      5-min Rain = 0
KTAS 210757Z 20012KT 05/M02 A2998 RMK A01 T00501022  RH  060%=      5-min Rain = 0
KTAS 210758Z 20010KT 05/M02 A2998 RMK A01 T00501022  RH  060%=      5-min Rain = 0
KTAS 210759Z 20012KT 05/M02 A2998 RMK A01 T00491023  RH  060%=      5-min Rain = 0
KTAS 210800Z 20011KT 05/M02 A2998 RMK A01 T00491022  RH  060%=      5-min Rain = 0
KTAS 210801Z 20010KT 05/M02 A2997 RMK A01 T00491022  RH  060%=      5-min Rain = 0
KTAS 210802Z 20010KT 05/M02 A2997 RMK A01 T00491022  RH  060%=      5-min Rain = 0
KTAS 210803Z 20011KT 05/M02 A2997 RMK A01 T00491022  RH  060%=      5-min Rain = 0
KTAS 210804Z 20010KT 05/M02 A2997 RMK A01 T00491022  RH  060%=      5-min Rain = 0
KTAS 210805Z 20010KT 05/M02 A2997 RMK A01 T00481022  RH  060%=      5-min Rain = 0
KTAS 210806Z 20010KT 05/M02 A2997 RMK A01 T00481022  RH  060%=      5-min Rain = 0
KTAS 210807Z 20010KT 05/M02 A2997 RMK A01 T00481022  RH  060%=      5-min Rain = 0
KTAS 210808Z 21010KT 05/M02 A2997 RMK A01 T00481022  RH  061%=      5-min Rain = 0
KTAS 210809Z 20011KT 05/M02 A2997 RMK A01 T00491021  RH  060%=      5-min Rain = 0
KTAS 210810Z 21011KT 05/M02 A2997 RMK A01 T00501021  RH  060%=      5-min Rain = 0
KTAS 210811Z 20011KT 05/M02 A2997 RMK A01 T00511021  RH  060%=      5-min Rain = 0
KTAS 210812Z 20010KT 05/M02 A2997 RMK A01 T00501021  RH  060%=      5-min Rain = 0
KTAS 210813Z 20011KT 05/M02 A2997 RMK A01 T00501021  RH  060%=      5-min Rain = 0
KTAS 210814Z 20011KT 05/M02 A2997 RMK A01 T00501021  RH  060%=      5-min Rain = 0
KTAS 210815Z 20010KT 05/M02 A2996 RMK A01 T00501021  RH  060%=      5-min Rain = 0
KTAS 210816Z 20011KT 05/M02 A2996 RMK A01 T00491021  RH  061%=      5-min Rain = 0
KTAS 210817Z 20011KT 05/M02 A2996 RMK A01 T00501020  RH  060%=      5-min Rain = 0
KTAS 210818Z 20010KT 05/M02 A2996 RMK A01 T00501020  RH  060%=      5-min Rain = 0
KTAS 210819Z 20010KT 05/M02 A2996 RMK A01 T00501021  RH  060%=      5-min Rain = 0
KTAS 210820Z 20011KT 05/M02 A2996 RMK A01 T00491021  RH  061%=      5-min Rain = 0
KTAS 210821Z 20011KT 05/M02 A2996 RMK A01 T00491020  RH  061%=      5-min Rain = 0
KTAS 210822Z 20010KT 05/M02 A2996 RMK A01 T00491021  RH  061%=      5-min Rain = 0
KTAS 210823Z 20009KT 05/M02 A2996 RMK A01 T00491020  RH  061%=      5-min Rain = 0
KTAS 210824Z 20009KT 05/M02 A2996 RMK A01 T00491021  RH  061%=      5-min Rain = 0
KTAS 210825Z 20009KT 05/M02 A2996 RMK A01 T00481021  RH  061%=      5-min Rain = 0
KTAS 210826Z 20009KT 05/M02 A2996 RMK A01 T00471021  RH  061%=      5-min Rain = 0
KTAS 210827Z 20008KT 05/M02 A2996 RMK A01 T00461022  RH  061%=      5-min Rain = 0
KTAS 210828Z 20008KT 05/M02 A2996 RMK A01 T00451022  RH  062%=      5-min Rain = 0
KTAS 210829Z 19008KT 04/M02 A2996 RMK A01 T00441022  RH  062%=      5-min Rain = 0
KTAS 210830Z 20008KT 04/M02 A2996 RMK A01 T00421023  RH  062%=      5-min Rain = 0
KTAS 210831Z 20008KT 04/M02 A2996 RMK A01 T00421023  RH  063%=      5-min Rain = 0
KTAS 210832Z 19008KT 04/M02 A2996 RMK A01 T00401024  RH  063%=      5-min Rain = 0
KTAS 210833Z 19008KT 04/M02 A2996 RMK A01 T00391024  RH  063%=      5-min Rain = 0
KTAS 210834Z 19008KT 04/M02 A2996 RMK A01 T00391024  RH  064%=      5-min Rain = 0
KTAS 210835Z 19008KT 04/M02 A2996 RMK A01 T00381023  RH  064%=      5-min Rain = 0
KTAS 210836Z 19008KT 04/M02 A2996 RMK A01 T00381024  RH  064%=      5-min Rain = 0
KTAS 210837Z 20008KT 04/M02 A2996 RMK A01 T00371024  RH  064%=      5-min Rain = 0
KTAS 210838Z 19008KT 04/M02 A2996 RMK A01 T00361024  RH  065%=      5-min Rain = 0
KTAS 210839Z 20008KT 04/M02 A2996 RMK A01 T00361024  RH  065%=      5-min Rain = 0
KTAS 210840Z 20008KT 04/M02 A2996 RMK A01 T00361024  RH  065%=      5-min Rain = 0
KTAS 210841Z 20007KT 04/M02 A2996 RMK A01 T00361024  RH  065%=      5-min Rain = 0
KTAS 210842Z 19007KT 04/M02 A2996 RMK A01 T00351024  RH  065%=      5-min Rain = 0
KTAS 210843Z 19008KT 04/M02 A2996 RMK A01 T00351024  RH  065%=      5-min Rain = 0
KTAS 210844Z 19008KT 03/M03 A2996 RMK A01 T00341025  RH  065%=      5-min Rain = 0
KTAS 210845Z 19008KT 03/M03 A2996 RMK A01 T00331025  RH  066%=      5-min Rain = 0
KTAS 210846Z 19008KT 03/M03 A2996 RMK A01 T00321025  RH  066%=      5-min Rain = 0
KTAS 210847Z 19008KT 03/M03 A2996 RMK A01 T00311025  RH  066%=      5-min Rain = 0
KTAS 210848Z 19008KT 03/M03 A2996 RMK A01 T00311025  RH  067%=      5-min Rain = 0
KTAS 210849Z 19008KT 03/M03 A2996 RMK A01 T00301025  RH  067%=      5-min Rain = 0
KTAS 210850Z 19008KT 03/M03 A2996 RMK A01 T00301025  RH  067%=      5-min Rain = 0
KTAS 210851Z 19008KT 03/M03 A2996 RMK A01 T00301025  RH  067%=      5-min Rain = 0
KTAS 210852Z 19008KT 03/M03 A2996 RMK A01 T00301025  RH  067%=      5-min Rain = 0
KTAS 210853Z 19008KT 03/M03 A2996 RMK A01 T00301025  RH  068%=      5-min Rain = 0
KTAS 210854Z 19008KT 03/M02 A2995 RMK A01 T00291024  RH  068%=      5-min Rain = 0
KTAS 210855Z 19008KT 03/M02 A2995 RMK A01 T00301024  RH  068%=      5-min Rain = 0
KTAS 210856Z 19008KT 03/M02 A2995 RMK A01 T00291024  RH  068%=      5-min Rain = 0
KTAS 210857Z 19008KT 03/M02 A2995 RMK A01 T00291024  RH  068%=      5-min Rain = 0
KTAS 210858Z 19008KT 03/M02 A2995 RMK A01 T00301023  RH  068%=      5-min Rain = 0
KTAS 210859Z 19009KT 03/M02 A2995 RMK A01 T00311023  RH  068%=      5-min Rain = 0
KTAS 210900Z 19008KT 03/M02 A2995 RMK A01 T00311022  RH  068%=      5-min Rain = 0
KTAS 210901Z 19008KT 03/M02 A2995 RMK A01 T00321021  RH  068%=      5-min Rain = 0
KTAS 210902Z 19008KT 03/M02 A2995 RMK A01 T00321021  RH  068%=      5-min Rain = 0
KTAS 210903Z 19008KT 03/M02 A2995 RMK A01 T00331021  RH  068%=      5-min Rain = 0
KTAS 210904Z 19008KT 03/M02 A2995 RMK A01 T00331021  RH  068%=      5-min Rain = 0
KTAS 210905Z 19008KT 03/M02 A2995 RMK A01 T00341021  RH  068%=      5-min Rain = 0
KTAS 210906Z 19008KT 03/M02 A2995 RMK A01 T00331021  RH  067%=      5-min Rain = 0
KTAS 210907Z 19009KT 03/M02 A2995 RMK A01 T00331021  RH  068%=      5-min Rain = 0
KTAS 210908Z 19008KT 03/M02 A2995 RMK A01 T00341020  RH  068%=      5-min Rain = 0
KTAS 210909Z 19008KT 04/M02 A2995 RMK A01 T00351019  RH  067%=      5-min Rain = 0
KTAS 210910Z 19009KT 04/M02 A2995 RMK A01 T00361019  RH  067%=      5-min Rain = 0
KTAS 210911Z 19008KT 04/M02 A2995 RMK A01 T00371019  RH  067%=      5-min Rain = 0
KTAS 210912Z 19009KT 04/M02 A2995 RMK A01 T00371019  RH  067%=      5-min Rain = 0
KTAS 210913Z 19009KT 04/M02 A2995 RMK A01 T00381019  RH  067%=      5-min Rain = 0
KTAS 210914Z 19009KT 04/M02 A2995 RMK A01 T00381019  RH  067%=      5-min Rain = 0
KTAS 210915Z 19008KT 04/M02 A2995 RMK A01 T00371019  RH  067%=      5-min Rain = 0
KTAS 210916Z 19008KT 04/M02 A2995 RMK A01 T00371019  RH  067%=      5-min Rain = 0
KTAS 210917Z 19008KT 04/M02 A2995 RMK A01 T00371019  RH  067%=      5-min Rain = 0
KTAS 210918Z 19008KT 04/M02 A2995 RMK A01 T00371019  RH  067%=      5-min Rain = 0
KTAS 210919Z 19008KT 04/M02 A2995 RMK A01 T00371020  RH  067%=      5-min Rain = 0
KTAS 210920Z 19008KT 04/M02 A2995 RMK A01 T00371019  RH  067%=      5-min Rain = 0
KTAS 210921Z 19008KT 04/M02 A2995 RMK A01 T00381019  RH  066%=      5-min Rain = 0
KTAS 210922Z 19008KT 04/M02 A2995 RMK A01 T00371020  RH  066%=      5-min Rain = 0
KTAS 210923Z 19008KT 04/M02 A2995 RMK A01 T00361020  RH  067%=      5-min Rain = 0
KTAS 210924Z 19009KT 04/M02 A2994 RMK A01 T00361020  RH  067%=      5-min Rain = 0
KTAS 210925Z 19009KT 04/M02 A2994 RMK A01 T00361019  RH  067%=      5-min Rain = 0
KTAS 210926Z 19009KT 04/M02 A2994 RMK A01 T00371019  RH  067%=      5-min Rain = 0
KTAS 210927Z 19009KT 04/M02 A2994 RMK A01 T00371019  RH  067%=      5-min Rain = 0
KTAS 210928Z 19009KT 04/M02 A2994 RMK A01 T00371020  RH  066%=      5-min Rain = 0
KTAS 210929Z 19008KT 04/M02 A2994 RMK A01 T00361020  RH  067%=      5-min Rain = 0
KTAS 210930Z 19009KT 04/M02 A2994 RMK A01 T00361020  RH  067%=      5-min Rain = 0
KTAS 210931Z 19009KT 04/M02 A2994 RMK A01 T00361020  RH  067%=      5-min Rain = 0
KTAS 210932Z 19009KT 04/M02 A2994 RMK A01 T00361021  RH  067%=      5-min Rain = 0
KTAS 210933Z 19009KT 04/M02 A2994 RMK A01 T00351020  RH  067%=      5-min Rain = 0
KTAS 210934Z 19010KT 04/M02 A2994 RMK A01 T00361020  RH  067%=      5-min Rain = 0
KTAS 210935Z 19009KT 04/M02 A2994 RMK A01 T00361019  RH  067%=      5-min Rain = 0
KTAS 210936Z 19009KT 04/M02 A2994 RMK A01 T00371019  RH  067%=      5-min Rain = 0
KTAS 210937Z 19009KT 04/M02 A2994 RMK A01 T00361020  RH  067%=      5-min Rain = 0
KTAS 210938Z 19009KT 04/M02 A2994 RMK A01 T00361020  RH  067%=      5-min Rain = 0
KTAS 210939Z 19009KT 04/M02 A2994 RMK A01 T00361020  RH  067%=      5-min Rain = 0
KTAS 210940Z 19009KT 04/M02 A2994 RMK A01 T00351020  RH  067%=      5-min Rain = 0
KTAS 210941Z 19008KT 03/M02 A2994 RMK A01 T00341021  RH  067%=      5-min Rain = 0
KTAS 210942Z 19008KT 03/M02 A2994 RMK A01 T00341021  RH  067%=      5-min Rain = 0
KTAS 210943Z 19009KT 03/M02 A2994 RMK A01 T00321022  RH  068%=      5-min Rain = 0
KTAS 210944Z 18008KT 03/M02 A2994 RMK A01 T00311022  RH  068%=      5-min Rain = 0
KTAS 210945Z 18009KT 03/M02 A2994 RMK A01 T00301023  RH  068%=      5-min Rain = 0
KTAS 210946Z 18008KT 03/M02 A2994 RMK A01 T00301022  RH  068%=      5-min Rain = 0
KTAS 210947Z 18009KT 03/M02 A2994 RMK A01 T00291023  RH  069%=      5-min Rain = 0
KTAS 210948Z 19009KT 03/M02 A2994 RMK A01 T00281023  RH  069%=      5-min Rain = 0
KTAS 210949Z 18009KT 03/M02 A2994 RMK A01 T00281022  RH  070%=      5-min Rain = 0
KTAS 210950Z 18009KT 03/M02 A2994 RMK A01 T00291021  RH  070%=      5-min Rain = 0
KTAS 210951Z 18009KT 03/M02 A2994 RMK A01 T00291021  RH  069%=      5-min Rain = 0
KTAS 210952Z 19009KT 03/M02 A2994 RMK A01 T00291021  RH  070%=      5-min Rain = 0
KTAS 210953Z 19008KT 03/M02 A2994 RMK A01 T00281021  RH  070%=      5-min Rain = 0
KTAS 210954Z 19009KT 03/M02 A2994 RMK A01 T00281021  RH  070%=      5-min Rain = 0
KTAS 210955Z 19008KT 03/M02 A2994 RMK A01 T00281022  RH  070%=      5-min Rain = 0
KTAS 210956Z 19009KT 03/M02 A2993 RMK A01 T00281022  RH  070%=      5-min Rain = 0
KTAS 210957Z 19009KT 03/M02 A2993 RMK A01 T00281021  RH  070%=      5-min Rain = 0
KTAS 210958Z 18009KT 03/M02 A2993 RMK A01 T00281021  RH  070%=      5-min Rain = 0
KTAS 210959Z 18010KT 03/M02 A2993 RMK A01 T00281020  RH  070%=      5-min Rain = 0
KTAS 211000Z 19009KT 03/M02 A2993 RMK A01 T00291019  RH  070%=      5-min Rain = 0
KTAS 211001Z 19009KT 03/M02 A2993 RMK A01 T00291020  RH  070%=      5-min Rain = 0
KTAS 211002Z 19009KT 03/M02 A2993 RMK A01 T00301019  RH  070%=      5-min Rain = 0
KTAS 211003Z 19009KT 03/M02 A2993 RMK A01 T00301020  RH  070%=      5-min Rain = 0
KTAS 211004Z 19009KT 03/M02 A2993 RMK A01 T00301019  RH  070%=      5-min Rain = 0
KTAS 211005Z 19009KT 03/M02 A2993 RMK A01 T00301019  RH  070%=      5-min Rain = 0
KTAS 211006Z 19010KT 03/M02 A2993 RMK A01 T00311019  RH  070%=      5-min Rain = 0
KTAS 211007Z 19009KT 03/M02 A2993 RMK A01 T00311019  RH  070%=      5-min Rain = 0
KTAS 211008Z 19009KT 03/M02 A2993 RMK A01 T00311019  RH  069%=      5-min Rain = 0
KTAS 211009Z 19009KT 03/M02 A2993 RMK A01 T00311020  RH  070%=      5-min Rain = 0
KTAS 211010Z 19009KT 03/M02 A2993 RMK A01 T00311019  RH  070%=      5-min Rain = 0
KTAS 211011Z 18010KT 03/M02 A2993 RMK A01 T00311020  RH  070%=      5-min Rain = 0
KTAS 211012Z 18009KT 03/M02 A2993 RMK A01 T00311019  RH  070%=      5-min Rain = 0
KTAS 211013Z 18010KT 03/M02 A2993 RMK A01 T00311019  RH  070%=      5-min Rain = 0
KTAS 211014Z 19010KT 03/M02 A2993 RMK A01 T00311019  RH  070%=      5-min Rain = 0
KTAS 211015Z 19010KT 03/M02 A2993 RMK A01 T00311019  RH  070%=      5-min Rain = 0
KTAS 211016Z 19009KT 03/M02 A2993 RMK A01 T00321019  RH  069%=      5-min Rain = 0
KTAS 211017Z 19010KT 03/M02 A2993 RMK A01 T00311020  RH  069%=      5-min Rain = 0
KTAS 211018Z 19009KT 03/M02 A2993 RMK A01 T00311019  RH  070%=      5-min Rain = 0
KTAS 211019Z 19010KT 03/M02 A2993 RMK A01 T00311019  RH  070%=      5-min Rain = 0
KTAS 211020Z 19010KT 03/M02 A2993 RMK A01 T00321019  RH  070%=      5-min Rain = 0
KTAS 211021Z 18009KT 03/M02 A2993 RMK A01 T00321019  RH  069%=      5-min Rain = 0
KTAS 211022Z 19010KT 03/M02 A2993 RMK A01 T00321019  RH  069%=      5-min Rain = 0
KTAS 211023Z 18010KT 03/M02 A2993 RMK A01 T00321019  RH  069%=      5-min Rain = 0
KTAS 211024Z 19011KT 03/M02 A2993 RMK A01 T00321019  RH  069%=      5-min Rain = 0
KTAS 211025Z 19011KT 03/M02 A2993 RMK A01 T00331018  RH  069%=      5-min Rain = 0
KTAS 211026Z 18011KT 03/M02 A2993 RMK A01 T00341018  RH  069%=      5-min Rain = 0
KTAS 211027Z 19011KT 03/M02 A2993 RMK A01 T00341018  RH  069%=      5-min Rain = 0
KTAS 211028Z 19011KT 03/M02 A2993 RMK A01 T00341018  RH  069%=      5-min Rain = 0
KTAS 211029Z 19010KT 04/M02 A2992 RMK A01 T00351017  RH  069%=      5-min Rain = 0
KTAS 211030Z 19010KT 04/M02 A2992 RMK A01 T00351018  RH  068%=      5-min Rain = 0
KTAS 211031Z 19010KT 03/M02 A2992 RMK A01 T00341018  RH  068%=      5-min Rain = 0
KTAS 211032Z 19011KT 03/M02 A2992 RMK A01 T00341018  RH  069%=      5-min Rain = 0
KTAS 211033Z 19010KT 03/M02 A2992 RMK A01 T00341018  RH  069%=      5-min Rain = 0
KTAS 211034Z 19010KT 03/M02 A2992 RMK A01 T00341018  RH  069%=      5-min Rain = 0
KTAS 211035Z 19011KT 03/M02 A2992 RMK A01 T00331019  RH  069%=      5-min Rain = 0
KTAS 211036Z 18011KT 03/M02 A2992 RMK A01 T00331018  RH  069%=      5-min Rain = 0
KTAS 211037Z 19011KT 03/M02 A2992 RMK A01 T00341018  RH  069%=      5-min Rain = 0
KTAS 211038Z 19010KT 03/M02 A2992 RMK A01 T00341018  RH  069%=      5-min Rain = 0
KTAS 211039Z 19011KT 03/M02 A2992 RMK A01 T00341018  RH  069%=      5-min Rain = 0
KTAS 211040Z 19011KT 03/M02 A2992 RMK A01 T00341018  RH  069%=      5-min Rain = 0
KTAS 211041Z 19010KT 03/M02 A2992 RMK A01 T00341018  RH  068%=      5-min Rain = 0
KTAS 211042Z 19010KT 03/M02 A2992 RMK A01 T00341018  RH  069%=      5-min Rain = 0
KTAS 211043Z 19012KT 03/M02 A2992 RMK A01 T00341018  RH  069%=      5-min Rain = 0
KTAS 211044Z 19011KT 03/M02 A2992 RMK A01 T00341018  RH  069%=      5-min Rain = 0
KTAS 211045Z 19010KT 03/M02 A2992 RMK A01 T00331019  RH  069%=      5-min Rain = 0
KTAS 211046Z 19011KT 03/M02 A2992 RMK A01 T00331019  RH  069%=      5-min Rain = 0
KTAS 211047Z 19010KT 03/M02 A2992 RMK A01 T00331019  RH  069%=      5-min Rain = 0
KTAS 211048Z 19010KT 03/M02 A2992 RMK A01 T00331019  RH  069%=      5-min Rain = 0
KTAS 211049Z 19009KT 03/M02 A2992 RMK A01 T00331019  RH  069%=      5-min Rain = 0
KTAS 211050Z 19010KT 03/M02 A2992 RMK A01 T00321020  RH  069%=      5-min Rain = 0
KTAS 211051Z 19010KT 03/M02 A2992 RMK A01 T00321020  RH  069%=      5-min Rain = 0
KTAS 211052Z 19011KT 03/M02 A2992 RMK A01 T00311020  RH  069%=      5-min Rain = 0
KTAS 211053Z 19009KT 03/M02 A2992 RMK A01 T00321019  RH  069%=      5-min Rain = 0
KTAS 211054Z 19009KT 03/M02 A2992 RMK A01 T00321019  RH  069%=      5-min Rain = 0
KTAS 211055Z 19010KT 03/M02 A2992 RMK A01 T00321019  RH  069%=      5-min Rain = 0
KTAS 211056Z 19010KT 03/M02 A2991 RMK A01 T00321019  RH  069%=      5-min Rain = 0
KTAS 211057Z 19010KT 03/M02 A2991 RMK A01 T00321019  RH  069%=      5-min Rain = 0
KTAS 211058Z 19010KT 03/M02 A2991 RMK A01 T00321020  RH  069%=      5-min Rain = 0
KTAS 211059Z 19010KT 03/M02 A2991 RMK A01 T00311019  RH  069%=      5-min Rain = 0
KTAS 211100Z 19009KT 03/M02 A2991 RMK A01 T00321019  RH  069%=      5-min Rain = 0
KTAS 211101Z 19011KT 03/M02 A2991 RMK A01 T00321019  RH  069%=      5-min Rain = 0
KTAS 211102Z 19011KT 03/M02 A2991 RMK A01 T00321019  RH  069%=      5-min Rain = 0
KTAS 211103Z 19012KT 03/M02 A2991 RMK A01 T00331019  RH  069%=      5-min Rain = 0
KTAS 211104Z 19011KT 03/M02 A2991 RMK A01 T00331019  RH  069%=      5-min Rain = 0
KTAS 211105Z 19010KT 03/M02 A2991 RMK A01 T00321020  RH  069%=      5-min Rain = 0
KTAS 211106Z 19011KT 03/M02 A2991 RMK A01 T00321020  RH  069%=      5-min Rain = 0
KTAS 211107Z 19010KT 03/M02 A2991 RMK A01 T00311020  RH  069%=      5-min Rain = 0
KTAS 211108Z 19011KT 03/M02 A2991 RMK A01 T00321020  RH  069%=      5-min Rain = 0
KTAS 211109Z 19011KT 03/M02 A2991 RMK A01 T00321020  RH  069%=      5-min Rain = 0
KTAS 211110Z 19011KT 03/M02 A2991 RMK A01 T00321020  RH  069%=      5-min Rain = 0
KTAS 211111Z 19011KT 03/M02 A2991 RMK A01 T00321020  RH  069%=      5-min Rain = 0
KTAS 211112Z 19009KT 03/M02 A2991 RMK A01 T00321020  RH  069%=      5-min Rain = 0
KTAS 211113Z 19010G15KT 03/M02 A2991 RMK A01 T00311021  RH  069%=      5-min Rain = 0
KTAS 211114Z 19010KT 03/M02 A2991 RMK A01 T00311020  RH  069%=      5-min Rain = 0
KTAS 211115Z 19010KT 03/M02 A2991 RMK A01 T00311020  RH  069%=      5-min Rain = 0
KTAS 211116Z 19010KT 03/M02 A2991 RMK A01 T00311020  RH  069%=      5-min Rain = 0
KTAS 211117Z 19011KT 03/M02 A2991 RMK A01 T00311020  RH  069%=      5-min Rain = 0
KTAS 211118Z 19011KT 03/M02 A2991 RMK A01 T00311020  RH  069%=      5-min Rain = 0
KTAS 211119Z 19009KT 03/M02 A2991 RMK A01 T00321020  RH  069%=      5-min Rain = 0
KTAS 211120Z 20010KT 03/M02 A2991 RMK A01 T00321020  RH  069%=      5-min Rain = 0
KTAS 211121Z 20011KT 03/M02 A2991 RMK A01 T00321020  RH  069%=      5-min Rain = 0
KTAS 211122Z 19011KT 03/M02 A2991 RMK A01 T00331020  RH  068%=      5-min Rain = 0
KTAS 211123Z 19011KT 03/M02 A2991 RMK A01 T00331020  RH  068%=      5-min Rain = 0
KTAS 211124Z 19010KT 03/M02 A2991 RMK A01 T00321020  RH  068%=      5-min Rain = 0
KTAS 211125Z 19010KT 03/M02 A2991 RMK A01 T00331020  RH  068%=      5-min Rain = 0
KTAS 211126Z 19010KT 03/M02 A2991 RMK A01 T00331020  RH  068%=      5-min Rain = 0
KTAS 211127Z 19011KT 03/M02 A299 RMK A01 T00331020  RH  068%=      5-min Rain = 0
KTAS 211128Z 19011KT 03/M02 A299 RMK A01 T00331020  RH  068%=      5-min Rain = 0
KTAS 211129Z 19012KT 03/M02 A299 RMK A01 T00331020  RH  068%=      5-min Rain = 0
KTAS 211130Z 19012KT 03/M02 A299 RMK A01 T00341020  RH  068%=      5-min Rain = 0
KTAS 211131Z 19012KT 03/M02 A299 RMK A01 T00341020  RH  068%=      5-min Rain = 0
KTAS 211132Z 19011KT 03/M02 A299 RMK A01 T00331021  RH  068%=      5-min Rain = 0
KTAS 211133Z 19013KT 03/M02 A299 RMK A01 T00341021  RH  068%=      5-min Rain = 0
KTAS 211134Z 19013KT 03/M02 A299 RMK A01 T00341020  RH  068%=      5-min Rain = 0
KTAS 211135Z 19011KT 04/M02 A299 RMK A01 T00351021  RH  067%=      5-min Rain = 0
KTAS 211136Z 20013KT 03/M02 A299 RMK A01 T00341021  RH  067%=      5-min Rain = 0
KTAS 211137Z 20012KT 03/M02 A299 RMK A01 T00341021  RH  067%=      5-min Rain = 0
KTAS 211138Z 20012KT 04/M02 A299 RMK A01 T00351021  RH  067%=      5-min Rain = 0
KTAS 211139Z 20010KT 04/M02 A299 RMK A01 T00351021  RH  067%=      5-min Rain = 0
KTAS 211140Z 19013KT 04/M02 A299 RMK A01 T00351021  RH  067%=      5-min Rain = 0
KTAS 211141Z 20014KT 04/M02 A299 RMK A01 T00361021  RH  066%=      5-min Rain = 0
KTAS 211142Z 19013KT 04/M02 A299 RMK A01 T00371021  RH  066%=      5-min Rain = 0
KTAS 211143Z 20013KT 04/M02 A299 RMK A01 T00371021  RH  066%=      5-min Rain = 0
KTAS 211144Z 19012KT 04/M02 A299 RMK A01 T00371022  RH  066%=      5-min Rain = 0
KTAS 211145Z 19013KT 04/M02 A299 RMK A01 T00361022  RH  066%=      5-min Rain = 0
KTAS 211146Z 19014KT 04/M02 A299 RMK A01 T00361022  RH  066%=      5-min Rain = 0
KTAS 211147Z 19014KT 04/M02 A299 RMK A01 T00361022  RH  066%=      5-min Rain = 0
KTAS 211148Z 20013KT 04/M02 A299 RMK A01 T00351022  RH  066%=      5-min Rain = 0
KTAS 211149Z 19013G18KT 04/M02 A299 RMK A01 T00351022  RH  066%=      5-min Rain = 0
KTAS 211150Z 20014KT 04/M02 A299 RMK A01 T00361022  RH  066%=      5-min Rain = 0
KTAS 211151Z 20013KT 04/M02 A299 RMK A01 T00361022  RH  066%=      5-min Rain = 0
KTAS 211152Z 19012KT 04/M02 A299 RMK A01 T00351023  RH  066%=      5-min Rain = 0
KTAS 211153Z 20012KT 04/M02 A299 RMK A01 T00351022  RH  066%=      5-min Rain = 0
KTAS 211154Z 19014KT 03/M02 A299 RMK A01 T00341023  RH  066%=      5-min Rain = 0
KTAS 211155Z 20014KT 04/M02 A299 RMK A01 T00351022  RH  066%=      5-min Rain = 0
KTAS 211156Z 20013KT 04/M02 A299 RMK A01 T00351022  RH  066%=      5-min Rain = 0
KTAS 211157Z 20014KT 04/M02 A299 RMK A01 T00351022  RH  066%=      5-min Rain = 0
KTAS 211158Z 20012KT 04/M02 A299 RMK A01 T00351022  RH  066%=      5-min Rain = 0
KTAS 211159Z 20012KT 03/M02 A299 RMK A01 T00341023  RH  066%=      5-min Rain = 0
KTAS 211200Z 20012KT 03/M02 A299 RMK A01 T00341023  RH  067%=      5-min Rain = 0
KTAS 211201Z 20014KT 03/M02 A299 RMK A01 T00341023  RH  067%=      5-min Rain = 0
KTAS 211202Z 20013KT 04/M02 A299 RMK A01 T00351022  RH  066%=      5-min Rain = 0
KTAS 211203Z 20012KT 03/M02 A299 RMK A01 T00341023  RH  066%=      5-min Rain = 0
KTAS 211204Z 20014KT 03/M02 A299 RMK A01 T00341023  RH  066%=      5-min Rain = 0
KTAS 211205Z 20015KT 04/M02 A299 RMK A01 T00351023  RH  066%=      5-min Rain = 0
KTAS 211206Z 20014KT 04/M02 A299 RMK A01 T00351022  RH  066%=      5-min Rain = 0
KTAS 211207Z 20015KT 04/M02 A299 RMK A01 T00351023  RH  066%=      5-min Rain = 0
KTAS 211208Z 20013KT 04/M02 A299 RMK A01 T00361023  RH  066%=      5-min Rain = 0
KTAS 211209Z 20011KT 04/M02 A299 RMK A01 T00351023  RH  066%=      5-min Rain = 0
KTAS 211210Z 20013KT 03/M02 A299 RMK A01 T00341024  RH  066%=      5-min Rain = 0
KTAS 211211Z 20015KT 03/M02 A299 RMK A01 T00341023  RH  066%=      5-min Rain = 0
KTAS 211212Z 20012G18KT 04/M02 A299 RMK A01 T00351023  RH  066%=      5-min Rain = 0
KTAS 211213Z 20014KT 04/M02 A299 RMK A01 T00351023  RH  066%=      5-min Rain = 0
KTAS 211214Z 21013G18KT 04/M02 A299 RMK A01 T00351023  RH  066%=      5-min Rain = 0
KTAS 211215Z 20016KT 04/M02 A299 RMK A01 T00361022  RH  066%=      5-min Rain = 0
KTAS 211216Z 20015KT 04/M02 A299 RMK A01 T00371023  RH  065%=      5-min Rain = 0
KTAS 211217Z 21015KT 04/M02 A299 RMK A01 T00371023  RH  065%=      5-min Rain = 0
KTAS 211218Z 20014KT 04/M02 A299 RMK A01 T00371023  RH  065%=      5-min Rain = 0
KTAS 211219Z 21014KT 04/M02 A299 RMK A01 T00371023  RH  065%=      5-min Rain = 0
KTAS 211220Z 20014KT 04/M02 A299 RMK A01 T00371023  RH  065%=      5-min Rain = 0
KTAS 211221Z 20014KT 04/M02 A299 RMK A01 T00371023  RH  065%=      5-min Rain = 0
KTAS 211222Z 21014KT 04/M02 A299 RMK A01 T00371023  RH  065%=      5-min Rain = 0
KTAS 211223Z 20013KT 04/M02 A299 RMK A01 T00371023  RH  065%=      5-min Rain = 0
KTAS 211224Z 21012KT 04/M02 A299 RMK A01 T00371024  RH  064%=      5-min Rain = 0
KTAS 211225Z 20012KT 04/M02 A299 RMK A01 T00361024  RH  065%=      5-min Rain = 0
KTAS 211226Z 21013KT 04/M02 A299 RMK A01 T00361024  RH  065%=      5-min Rain = 0
KTAS 211227Z 21013KT 04/M02 A299 RMK A01 T00361024  RH  065%=      5-min Rain = 0
KTAS 211228Z 21014KT 04/M02 A299 RMK A01 T00371023  RH  065%=      5-min Rain = 0
KTAS 211229Z 21012KT 04/M02 A299 RMK A01 T00371024  RH  064%=      5-min Rain = 0
KTAS 211230Z 20014KT 04/M02 A299 RMK A01 T00361024  RH  065%=      5-min Rain = 0
KTAS 211231Z 21013KT 04/M02 A299 RMK A01 T00361024  RH  065%=      5-min Rain = 0
KTAS 211232Z 21012KT 04/M02 A299 RMK A01 T00361024  RH  065%=      5-min Rain = 0
KTAS 211233Z 21014KT 04/M02 A299 RMK A01 T00361024  RH  065%=      5-min Rain = 0
KTAS 211234Z 21014KT 04/M02 A299 RMK A01 T00371024  RH  065%=      5-min Rain = 0
KTAS 211235Z 21014KT 04/M02 A299 RMK A01 T00371024  RH  065%=      5-min Rain = 0
KTAS 211236Z 21015KT 04/M02 A299 RMK A01 T00371024  RH  064%=      5-min Rain = 0
KTAS 211237Z 21013KT 04/M02 A299 RMK A01 T00371024  RH  064%=      5-min Rain = 0
KTAS 211238Z 21013KT 04/M02 A299 RMK A01 T00371024  RH  064%=      5-min Rain = 0
KTAS 211239Z 21014KT 04/M02 A2991 RMK A01 T00371024  RH  064%=      5-min Rain = 0
KTAS 211240Z 20013KT 04/M02 A299 RMK A01 T00371024  RH  064%=      5-min Rain = 0
KTAS 211241Z 21014KT 04/M02 A299 RMK A01 T00381024  RH  064%=      5-min Rain = 0
KTAS 211242Z 21014KT 04/M02 A299 RMK A01 T00381024  RH  064%=      5-min Rain = 0
KTAS 211243Z 21013KT 04/M02 A299 RMK A01 T00381024  RH  064%=      5-min Rain = 0
KTAS 211244Z 21011KT 04/M03 A299 RMK A01 T00381025  RH  064%=      5-min Rain = 0
KTAS 211245Z 21012KT 04/M03 A299 RMK A01 T00371025  RH  064%=      5-min Rain = 0
KTAS 211246Z 21012KT 04/M03 A299 RMK A01 T00371025  RH  064%=      5-min Rain = 0
KTAS 211247Z 21013KT 04/M03 A299 RMK A01 T00371025  RH  064%=      5-min Rain = 0
KTAS 211248Z 20011KT 04/M03 A299 RMK A01 T00371025  RH  064%=      5-min Rain = 0
KTAS 211249Z 20012KT 04/M03 A299 RMK A01 T00371025  RH  064%=      5-min Rain = 0
KTAS 211250Z 20011KT 04/M03 A299 RMK A01 T00361025  RH  064%=      5-min Rain = 0
KTAS 211251Z 20011KT 04/M03 A299 RMK A01 T00371025  RH  064%=      5-min Rain = 0
KTAS 211252Z 20011KT 04/M03 A299 RMK A01 T00361025  RH  064%=      5-min Rain = 0
KTAS 211253Z 20012KT 04/M03 A299 RMK A01 T00371025  RH  064%=      5-min Rain = 0
KTAS 211254Z 20012KT 04/M03 A299 RMK A01 T00361025  RH  064%=      5-min Rain = 0
KTAS 211255Z 20012KT 04/M02 A299 RMK A01 T00371024  RH  064%=      5-min Rain = 0
KTAS 211256Z 20012KT 04/M02 A299 RMK A01 T00371024  RH  064%=      5-min Rain = 0
KTAS 211257Z 19014KT 04/M03 A299 RMK A01 T00371025  RH  064%=      5-min Rain = 0
KTAS 211258Z 19012KT 04/M02 A299 RMK A01 T00381024  RH  064%=      5-min Rain = 0
KTAS 211259Z 19012KT 04/M03 A299 RMK A01 T00381025  RH  064%=      5-min Rain = 0
KTAS 211300Z 20013KT 04/M03 A299 RMK A01 T00381025  RH  064%=      5-min Rain = 0
KTAS 211301Z 19014KT 04/M02 A299 RMK A01 T00381024  RH  064%=      5-min Rain = 0
KTAS 211302Z 20014KT 04/M03 A299 RMK A01 T00391025  RH  063%=      5-min Rain = 0
KTAS 211303Z 19013KT 04/M03 A299 RMK A01 T00381025  RH  063%=      5-min Rain = 0
KTAS 211304Z 19014KT 04/M03 A2989 RMK A01 T00381025  RH  063%=      5-min Rain = 0
KTAS 211305Z 19013KT 04/M03 A2989 RMK A01 T00391025  RH  063%=      5-min Rain = 0
KTAS 211306Z 19014KT 04/M03 A2989 RMK A01 T00381025  RH  063%=      5-min Rain = 0
KTAS 211307Z 19014KT 04/M03 A2989 RMK A01 T00381025  RH  063%=      5-min Rain = 0
KTAS 211308Z 19015KT 04/M03 A2989 RMK A01 T00381025  RH  063%=      5-min Rain = 0
KTAS 211309Z 19014KT 04/M03 A2989 RMK A01 T00381025  RH  063%=      5-min Rain = 0
KTAS 211310Z 19012KT 04/M03 A2989 RMK A01 T00371025  RH  064%=      5-min Rain = 0
KTAS 211311Z 19013KT 04/M03 A2989 RMK A01 T00361026  RH  064%=      5-min Rain = 0
KTAS 211312Z 19013KT 04/M03 A2989 RMK A01 T00361026  RH  064%=      5-min Rain = 0
KTAS 211313Z 19015KT 04/M03 A2989 RMK A01 T00361025  RH  064%=      5-min Rain = 0
KTAS 211314Z 19013KT 04/M03 A2989 RMK A01 T00361025  RH  064%=      5-min Rain = 0
KTAS 211315Z 19013KT 04/M03 A2989 RMK A01 T00351026  RH  064%=      5-min Rain = 0
KTAS 211316Z 19014KT 04/M03 A2989 RMK A01 T00351026  RH  064%=      5-min Rain = 0
KTAS 211317Z 19015KT 04/M03 A2989 RMK A01 T00361025  RH  064%=      5-min Rain = 0
KTAS 211318Z 19015KT 04/M03 A2989 RMK A01 T00361025  RH  064%=      5-min Rain = 0
KTAS 211319Z 19015KT 04/M03 A2989 RMK A01 T00371025  RH  064%=      5-min Rain = 0
KTAS 211320Z 20014KT 04/M03 A2989 RMK A01 T00361025  RH  064%=      5-min Rain = 0
KTAS 211321Z 19015KT 04/M03 A2989 RMK A01 T00361026  RH  064%=      5-min Rain = 0
KTAS 211322Z 19015KT 04/M03 A2989 RMK A01 T00361025  RH  064%=      5-min Rain = 0
KTAS 211323Z 19014KT 04/M03 A2989 RMK A01 T00361026  RH  064%=      5-min Rain = 0
KTAS 211324Z 20015KT 04/M03 A2989 RMK A01 T00361025  RH  064%=      5-min Rain = 0
KTAS 211325Z 20016KT 04/M03 A2989 RMK A01 T00371025  RH  064%=      5-min Rain = 0
KTAS 211326Z 20015KT 04/M03 A2989 RMK A01 T00371025  RH  064%=      5-min Rain = 0
KTAS 211327Z 19016KT 04/M03 A2989 RMK A01 T00371025  RH  064%=      5-min Rain = 0
KTAS 211328Z 20013KT 04/M03 A299 RMK A01 T00381025  RH  064%=      5-min Rain = 0
KTAS 211329Z 20014KT 04/M03 A299 RMK A01 T00371026  RH  064%=      5-min Rain = 0
KTAS 211330Z 20014KT 04/M03 A299 RMK A01 T00371026  RH  064%=      5-min Rain = 0
KTAS 211331Z 20013KT 04/M03 A299 RMK A01 T00371026  RH  064%=      5-min Rain = 0
KTAS 211332Z 20015KT 04/M03 A299 RMK A01 T00371026  RH  064%=      5-min Rain = 0
KTAS 211333Z 20015KT 04/M03 A299 RMK A01 T00381025  RH  063%=      5-min Rain = 0
KTAS 211334Z 20015KT 04/M03 A299 RMK A01 T00381025  RH  063%=      5-min Rain = 0
KTAS 211335Z 19014KT 04/M03 A299 RMK A01 T00391026  RH  063%=      5-min Rain = 0
KTAS 211336Z 20013KT 04/M03 A299 RMK A01 T00381026  RH  063%=      5-min Rain = 0
KTAS 211337Z 20014KT 04/M03 A299 RMK A01 T00371026  RH  063%=      5-min Rain = 0
KTAS 211338Z 20014KT 04/M03 A299 RMK A01 T00371026  RH  064%=      5-min Rain = 0
KTAS 211339Z 20016KT 04/M03 A299 RMK A01 T00371026  RH  063%=      5-min Rain = 0
KTAS 211340Z 20014KT 04/M03 A299 RMK A01 T00371026  RH  063%=      5-min Rain = 0
KTAS 211341Z 20014KT 04/M03 A299 RMK A01 T00371026  RH  063%=      5-min Rain = 0
KTAS 211342Z 20014KT 04/M03 A299 RMK A01 T00371026  RH  063%=      5-min Rain = 0
KTAS 211343Z 20013KT 04/M03 A299 RMK A01 T00371026  RH  063%=      5-min Rain = 0
KTAS 211344Z 20013KT 04/M03 A299 RMK A01 T00361026  RH  064%=      5-min Rain = 0
KTAS 211345Z 20013KT 04/M03 A299 RMK A01 T00361026  RH  064%=      5-min Rain = 0
KTAS 211346Z 20014KT 04/M03 A299 RMK A01 T00361026  RH  064%=      5-min Rain = 0
KTAS 211347Z 20013KT 04/M03 A299 RMK A01 T00361026  RH  064%=      5-min Rain = 0
KTAS 211348Z 20014KT 04/M03 A299 RMK A01 T00371026  RH  064%=      5-min Rain = 0
KTAS 211349Z 20013KT 04/M03 A299 RMK A01 T00371026  RH  063%=      5-min Rain = 0
KTAS 211350Z 20013KT 04/M03 A299 RMK A01 T00371026  RH  063%=      5-min Rain = 0
KTAS 211351Z 20013KT 04/M03 A2989 RMK A01 T00371026  RH  063%=      5-min Rain = 0
KTAS 211352Z 20013KT 04/M03 A2989 RMK A01 T00381026  RH  063%=      5-min Rain = 0
KTAS 211353Z 20012KT 04/M03 A2989 RMK A01 T00371026  RH  063%=      5-min Rain = 0
KTAS 211354Z 20014KT 04/M03 A2989 RMK A01 T00371026  RH  064%=      5-min Rain = 0
KTAS 211355Z 20013KT 04/M03 A2989 RMK A01 T00381026  RH  063%=      5-min Rain = 0
KTAS 211356Z 20012KT 04/M03 A2989 RMK A01 T00381026  RH  063%=      5-min Rain = 0
KTAS 211357Z 20013KT 04/M03 A299 RMK A01 T00381026  RH  063%=      5-min Rain = 0
KTAS 211358Z 20012KT 04/M03 A299 RMK A01 T00381026  RH  063%=      5-min Rain = 0
KTAS 211359Z 20012KT 04/M03 A299 RMK A01 T00391026  RH  063%=      5-min Rain = 0
KTAS 211400Z 20013G18KT 04/M03 A299 RMK A01 T00391026  RH  063%=      5-min Rain = 0
KTAS 211401Z 20014KT 04/M03 A299 RMK A01 T00391026  RH  063%=      5-min Rain = 0
KTAS 211402Z 20013KT 04/M03 A299 RMK A01 T00401026  RH  062%=      5-min Rain = 0
KTAS 211403Z 20013G19KT 04/M03 A299 RMK A01 T00401026  RH  062%=      5-min Rain = 0
KTAS 211404Z 20012KT 04/M03 A299 RMK A01 T00401026  RH  062%=      5-min Rain = 0
KTAS 211405Z 20015KT 04/M03 A299 RMK A01 T00401026  RH  062%=      5-min Rain = 0
KTAS 211406Z 20012KT 04/M03 A299 RMK A01 T00401026  RH  062%=      5-min Rain = 0
KTAS 211407Z 20013KT 04/M03 A299 RMK A01 T00401026  RH  062%=      5-min Rain = 0
KTAS 211408Z 20013KT 04/M03 A299 RMK A01 T00401026  RH  062%=      5-min Rain = 0
KTAS 211409Z 20014KT 04/M03 A299 RMK A01 T00411026  RH  062%=      5-min Rain = 0
KTAS 211410Z 20013KT 04/M03 A299 RMK A01 T00411026  RH  062%=      5-min Rain = 0
KTAS 211411Z 20014KT 04/M03 A2989 RMK A01 T00411026  RH  062%=      5-min Rain = 0
KTAS 211412Z 19012KT 04/M03 A2989 RMK A01 T00401026  RH  062%=      5-min Rain = 0
KTAS 211413Z 20012KT 04/M03 A2989 RMK A01 T00401026  RH  062%=      5-min Rain = 0
KTAS 211414Z 20013KT 04/M03 A2989 RMK A01 T00401026  RH  062%=      5-min Rain = 0
KTAS 211415Z 20013KT 04/M03 A2989 RMK A01 T00401026  RH  062%=      5-min Rain = 0
KTAS 211416Z 20013KT 04/M03 A2989 RMK A01 T00401025  RH  062%=      5-min Rain = 0
KTAS 211417Z 20013KT 04/M03 A2989 RMK A01 T00411026  RH  062%=      5-min Rain = 0
KTAS 211418Z 20012KT 04/M03 A2989 RMK A01 T00411026  RH  062%=      5-min Rain = 0
KTAS 211419Z 20011KT 04/M03 A299 RMK A01 T00401026  RH  062%=      5-min Rain = 0
KTAS 211420Z 20012KT 04/M03 A299 RMK A01 T00401026  RH  062%=      5-min Rain = 0
KTAS 211421Z 20012KT 04/M03 A299 RMK A01 T00401025  RH  062%=      5-min Rain = 0
KTAS 211422Z 20013KT 04/M03 A299 RMK A01 T00401025  RH  062%=      5-min Rain = 0
KTAS 211423Z 20014KT 04/M03 A299 RMK A01 T00411025  RH  062%=      5-min Rain = 0
KTAS 211424Z 20014KT 04/M03 A299 RMK A01 T00411025  RH  062%=      5-min Rain = 0
KTAS 211425Z 20012KT 04/M03 A299 RMK A01 T00411026  RH  062%=      5-min Rain = 0
KTAS 211426Z 20013KT 04/M03 A299 RMK A01 T00401026  RH  062%=      5-min Rain = 0
KTAS 211427Z 19013KT 04/M03 A299 RMK A01 T00401026  RH  062%=      5-min Rain = 0
KTAS 211428Z 20013KT 04/M03 A2989 RMK A01 T00401026  RH  062%=      5-min Rain = 0
KTAS 211429Z 20014KT 04/M03 A2989 RMK A01 T00401026  RH  062%=      5-min Rain = 0
KTAS 211430Z 20014KT 04/M03 A2989 RMK A01 T00401026  RH  062%=      5-min Rain = 0
KTAS 211431Z 20012G17KT 04/M03 A2989 RMK A01 T00401026  RH  062%=      5-min Rain = 0
KTAS 211432Z 20015KT 04/M03 A2989 RMK A01 T00411025  RH  062%=      5-min Rain = 0
KTAS 211433Z 20014KT 04/M03 A2989 RMK A01 T00421025  RH  062%=      5-min Rain = 0
KTAS 211434Z 20015KT 04/M03 A2989 RMK A01 T00431025  RH  061%=      5-min Rain = 0
KTAS 211435Z 20014KT 04/M03 A2989 RMK A01 T00431025  RH  061%=      5-min Rain = 0
KTAS 211436Z 20015KT 04/M03 A2989 RMK A01 T00431025  RH  061%=      5-min Rain = 0
KTAS 211437Z 20015KT 04/M03 A2989 RMK A01 T00431025  RH  061%=      5-min Rain = 0
KTAS 211438Z 20012KT 04/M03 A2989 RMK A01 T00421026  RH  061%=      5-min Rain = 0
KTAS 211439Z 20015G21KT 04/M03 A2989 RMK A01 T00411026  RH  062%=      5-min Rain = 0
KTAS 211440Z 20013KT 04/M03 A2989 RMK A01 T00411026  RH  062%=      5-min Rain = 0
KTAS 211441Z 20013KT 04/M03 A2989 RMK A01 T00411026  RH  062%=      5-min Rain = 0
KTAS 211442Z 20012KT 04/M03 A2989 RMK A01 T00401026  RH  062%=      5-min Rain = 0
KTAS 211443Z 20014KT 04/M03 A2989 RMK A01 T00401026  RH  062%=      5-min Rain = 0
KTAS 211444Z 20014KT 04/M03 A2989 RMK A01 T00401026  RH  062%=      5-min Rain = 0
KTAS 211445Z 20013KT 04/M03 A2989 RMK A01 T00411026  RH  062%=      5-min Rain = 0
KTAS 211446Z 20012KT 04/M03 A2989 RMK A01 T00411025  RH  062%=      5-min Rain = 0
KTAS 211447Z 20012KT 04/M03 A2989 RMK A01 T00411025  RH  062%=      5-min Rain = 0
KTAS 211448Z 20013KT 04/M03 A2989 RMK A01 T00411025  RH  062%=      5-min Rain = 0
KTAS 211449Z 20015KT 04/M03 A2989 RMK A01 T00411025  RH  062%=      5-min Rain = 0
KTAS 211450Z 20013KT 04/M03 A2989 RMK A01 T00411025  RH  062%=      5-min Rain = 0
KTAS 211451Z 20015KT 04/M03 A2989 RMK A01 T00421025  RH  062%=      5-min Rain = 0
KTAS 211452Z 20013G18KT 04/M03 A2989 RMK A01 T00431025  RH  062%=      5-min Rain = 0
KTAS 211453Z 20012KT 04/M03 A2989 RMK A01 T00431025  RH  061%=      5-min Rain = 0
KTAS 211454Z 20011KT 04/M03 A2989 RMK A01 T00421025  RH  062%=      5-min Rain = 0
KTAS 211455Z 20011KT 04/M03 A2989 RMK A01 T00421025  RH  062%=      5-min Rain = 0
KTAS 211456Z 20013KT 04/M03 A2989 RMK A01 T00421025  RH  062%=      5-min Rain = 0
KTAS 211457Z 20013KT 04/M03 A2989 RMK A01 T00431025  RH  062%=      5-min Rain = 0
KTAS 211458Z 19015KT 04/M03 A2989 RMK A01 T00431025  RH  062%=      5-min Rain = 0
KTAS 211459Z 19013KT 04/M03 A2989 RMK A01 T00431025  RH  061%=      5-min Rain = 0
KTAS 211500Z 19014KT 04/M02 A2989 RMK A01 T00431024  RH  061%=      5-min Rain = 0
KTAS 211501Z 20015KT 05/M02 A2989 RMK A01 T00451024  RH  061%=      5-min Rain = 0
KTAS 211502Z 20016KT 05/M02 A2989 RMK A01 T00451024  RH  061%=      5-min Rain = 0
KTAS 211503Z 20014KT 05/M02 A2989 RMK A01 T00451024  RH  061%=      5-min Rain = 0
KTAS 211504Z 19014KT 05/M02 A2989 RMK A01 T00451024  RH  061%=      5-min Rain = 0
KTAS 211505Z 19015KT 05/M02 A2989 RMK A01 T00461023  RH  061%=      5-min Rain = 0
KTAS 211506Z 19013KT 05/M02 A2989 RMK A01 T00471023  RH  060%=      5-min Rain = 0
KTAS 211507Z 20014KT 05/M02 A2989 RMK A01 T00481022  RH  060%=      5-min Rain = 0
KTAS 211508Z 20013KT 05/M02 A2989 RMK A01 T00501021  RH  060%=      5-min Rain = 0
KTAS 211509Z 20014KT 05/M02 A2989 RMK A01 T00521021  RH  060%=      5-min Rain = 0
KTAS 211510Z 20014KT 05/M02 A2989 RMK A01 T00521021  RH  059%=      5-min Rain = 0
KTAS 211511Z 20012KT 05/M02 A2989 RMK A01 T00531021  RH  059%=      5-min Rain = 0
KTAS 211512Z 20015KT 05/M02 A2989 RMK A01 T00531022  RH  058%=      5-min Rain = 0
KTAS 211513Z 20015KT 05/M02 A2989 RMK A01 T00511024  RH  058%=      5-min Rain = 0
KTAS 211514Z 20015KT 05/M02 A2989 RMK A01 T00501024  RH  059%=      5-min Rain = 0
KTAS 211515Z 20014KT 05/M02 A2989 RMK A01 T00501024  RH  059%=      5-min Rain = 0
KTAS 211516Z 19015KT 05/M02 A2989 RMK A01 T00501024  RH  059%=      5-min Rain = 0
KTAS 211517Z 20014KT 05/M02 A2989 RMK A01 T00501024  RH  059%=      5-min Rain = 0
KTAS 211518Z 20015KT 05/M02 A2989 RMK A01 T00501024  RH  059%=      5-min Rain = 0
KTAS 211519Z 19015KT 05/M02 A2989 RMK A01 T00501024  RH  059%=      5-min Rain = 0
KTAS 211520Z 20013G19KT 05/M02 A2989 RMK A01 T00511023  RH  059%=      5-min Rain = 0
KTAS 211521Z 20014G19KT 05/M02 A2989 RMK A01 T00521022  RH  059%=      5-min Rain = 0
KTAS 211522Z 19013KT 05/M02 A2989 RMK A01 T00541021  RH  059%=      5-min Rain = 0
KTAS 211523Z 19013KT 06/M02 A2989 RMK A01 T00571019  RH  058%=      5-min Rain = 0
KTAS 211524Z 20014KT 06/M02 A2989 RMK A01 T00591019  RH  057%=      5-min Rain = 0
KTAS 211525Z 19016KT 06/M02 A2989 RMK A01 T00611018  RH  057%=      5-min Rain = 0
KTAS 211526Z 19017KT 06/M02 A2989 RMK A01 T00611021  RH  056%=      5-min Rain = 0
KTAS 211527Z 20018KT 06/M02 A2989 RMK A01 T00601022  RH  055%=      5-min Rain = 0
KTAS 211528Z 20017KT 06/M02 A2989 RMK A01 T00571024  RH  056%=      5-min Rain = 0
KTAS 211529Z 20017KT 06/M02 A2989 RMK A01 T00561023  RH  057%=      5-min Rain = 0
KTAS 211530Z 19015KT 06/M02 A2989 RMK A01 T00561023  RH  057%=      5-min Rain = 0
KTAS 211531Z 19017KT 06/M02 A2989 RMK A01 T00561023  RH  057%=      5-min Rain = 0
KTAS 211532Z 19016KT 06/M02 A2989 RMK A01 T00561023  RH  057%=      5-min Rain = 0
KTAS 211533Z 19013G18KT 06/M02 A2989 RMK A01 T00571022  RH  057%=      5-min Rain = 0
KTAS 211534Z 19014KT 06/M02 A2989 RMK A01 T00581022  RH  057%=      5-min Rain = 0
KTAS 211535Z 20013KT 06/M02 A2989 RMK A01 T00591021  RH  056%=      5-min Rain = 0
KTAS 211536Z 20011KT 06/M02 A2989 RMK A01 T00601021  RH  056%=      5-min Rain = 0
KTAS 211537Z 20014KT 06/M02 A2989 RMK A01 T00621020  RH  056%=      5-min Rain = 0
KTAS 211538Z 20015KT 06/M02 A2989 RMK A01 T00631021  RH  055%=      5-min Rain = 0
KTAS 211539Z 20015KT 06/M02 A2989 RMK A01 T00631021  RH  055%=      5-min Rain = 0
KTAS 211540Z 20014KT 06/M02 A2989 RMK A01 T00641021  RH  055%=      5-min Rain = 0
KTAS 211541Z 20016KT 06/M02 A2989 RMK A01 T00641021  RH  054%=      5-min Rain = 0
KTAS 211542Z 20012KT 07/M02 A2989 RMK A01 T00651022  RH  054%=      5-min Rain = 0
KTAS 211543Z 19013KT 07/M02 A2989 RMK A01 T00651021  RH  054%=      5-min Rain = 0
KTAS 211544Z 19013KT 07/M02 A2989 RMK A01 T00651021  RH  054%=      5-min Rain = 0
KTAS 211545Z 20015KT 07/M02 A2989 RMK A01 T00651021  RH  054%=      5-min Rain = 0
KTAS 211546Z 20014G19KT 07/M02 A2989 RMK A01 T00661021  RH  054%=      5-min Rain = 0
KTAS 211547Z 20014KT 07/M02 A2989 RMK A01 T00671020  RH  054%=      5-min Rain = 0
KTAS 211548Z 20015KT 07/M02 A2989 RMK A01 T00691020  RH  053%=      5-min Rain = 0
KTAS 211549Z 20016KT 07/M02 A2989 RMK A01 T00691021  RH  053%=      5-min Rain = 0
KTAS 211550Z 20016KT 07/M02 A2989 RMK A01 T00681022  RH  053%=      5-min Rain = 0
KTAS 211551Z 20017KT 07/M02 A2989 RMK A01 T00671022  RH  053%=      5-min Rain = 0
KTAS 211552Z 19014KT 07/M02 A2989 RMK A01 T00671022  RH  053%=      5-min Rain = 0
KTAS 211553Z 20014KT 07/M02 A2989 RMK A01 T00681020  RH  053%=      5-min Rain = 0
KTAS 211554Z 20015KT 07/M02 A2989 RMK A01 T00691021  RH  053%=      5-min Rain = 0
KTAS 211555Z 20015KT 07/M02 A2989 RMK A01 T00701021  RH  052%=      5-min Rain = 0
KTAS 211556Z 20016G21KT 07/M02 A2989 RMK A01 T00711021  RH  052%=      5-min Rain = 0
KTAS 211557Z 20015KT 07/M02 A2989 RMK A01 T00711021  RH  052%=      5-min Rain = 0
KTAS 211558Z 21013KT 07/M02 A2989 RMK A01 T00711020  RH  052%=      5-min Rain = 0
KTAS 211559Z 21016KT 07/M02 A2989 RMK A01 T00731020  RH  052%=      5-min Rain = 0
KTAS 211600Z 21014KT 07/M02 A2989 RMK A01 T00731021  RH  051%=      5-min Rain = 0
KTAS 211601Z 20016KT 07/M02 A2988 RMK A01 T00741020  RH  051%=      5-min Rain = 0
KTAS 211602Z 21015KT 07/M02 A2988 RMK A01 T00741021  RH  051%=      5-min Rain = 0
KTAS 211603Z 20012G17KT 08/M02 A2988 RMK A01 T00751019  RH  051%=      5-min Rain = 0
KTAS 211604Z 20015KT 08/M02 A2988 RMK A01 T00761020  RH  051%=      5-min Rain = 0
KTAS 211605Z 20016KT 08/M02 A2988 RMK A01 T00771021  RH  050%=      5-min Rain = 0
KTAS 211606Z 21015KT 08/M02 A2988 RMK A01 T00791020  RH  050%=      5-min Rain = 0
KTAS 211607Z 21019KT 08/M02 A2988 RMK A01 T00821019  RH  049%=      5-min Rain = 0
KTAS 211608Z 21015KT 08/M02 A2988 RMK A01 T00821021  RH  048%=      5-min Rain = 0
KTAS 211609Z 20018KT 08/M02 A2988 RMK A01 T00831020  RH  048%=      5-min Rain = 0
KTAS 211610Z 21016KT 08/M02 A2988 RMK A01 T00821021  RH  048%=      5-min Rain = 0
KTAS 211611Z 21016KT 08/M02 A2988 RMK A01 T00821021  RH  048%=      5-min Rain = 0
KTAS 211612Z 20015KT 08/M02 A2988 RMK A01 T00831021  RH  048%=      5-min Rain = 0
KTAS 211613Z 21016KT 08/M02 A2988 RMK A01 T00841020  RH  048%=      5-min Rain = 0
KTAS 211614Z 21016G21KT 09/M02 A2988 RMK A01 T00851021  RH  047%=      5-min Rain = 0
KTAS 211615Z 21019KT 09/M02 A2988 RMK A01 T00851021  RH  047%=      5-min Rain = 0
KTAS 211616Z 20017KT 09/M02 A2988 RMK A01 T00861021  RH  047%=      5-min Rain = 0
KTAS 211617Z 21015KT 09/M02 A2988 RMK A01 T00871020  RH  047%=      5-min Rain = 0
KTAS 211618Z 21015KT 09/M02 A2988 RMK A01 T00891019  RH  047%=      5-min Rain = 0
KTAS 211619Z 20017KT 09/M02 A2988 RMK A01 T00911020  RH  046%=      5-min Rain = 0
KTAS 211620Z 21016KT 09/M02 A2988 RMK A01 T00911021  RH  045%=      5-min Rain = 0
KTAS 211621Z 21016KT 09/M02 A2988 RMK A01 T00911021  RH  045%=      5-min Rain = 0
KTAS 211622Z 21017KT 09/M02 A2988 RMK A01 T00901023  RH  045%=      5-min Rain = 0
KTAS 211623Z 21017KT 09/M02 A2988 RMK A01 T00901023  RH  045%=      5-min Rain = 0
KTAS 211624Z 20018KT 09/M02 A2988 RMK A01 T00901024  RH  045%=      5-min Rain = 0
KTAS 211625Z 21015KT 09/M02 A2988 RMK A01 T00901023  RH  045%=      5-min Rain = 0
KTAS 211626Z 20018KT 09/M02 A2988 RMK A01 T00931021  RH  045%=      5-min Rain = 0
KTAS 211627Z 21016KT 09/M02 A2988 RMK A01 T00941021  RH  044%=      5-min Rain = 0
KTAS 211628Z 21016KT 10/M02 A2988 RMK A01 T00951021  RH  044%=      5-min Rain = 0
KTAS 211629Z 21017KT 10/M02 A2988 RMK A01 T00951022  RH  044%=      5-min Rain = 0
KTAS 211630Z 21017KT 10/M02 A2988 RMK A01 T00971020  RH  044%=      5-min Rain = 0
KTAS 211631Z 21015KT 10/M02 A2988 RMK A01 T01001019  RH  044%=      5-min Rain = 0
KTAS 211632Z 21017KT 10/M02 A2988 RMK A01 T01001021  RH  043%=      5-min Rain = 0
KTAS 211633Z 21016G21KT 10/M02 A2988 RMK A01 T01001022  RH  043%=      5-min Rain = 0
KTAS 211634Z 21019KT 10/M02 A2988 RMK A01 T01031021  RH  042%=      5-min Rain = 0
KTAS 211635Z 21020KT 10/M02 A2987 RMK A01 T01021024  RH  041%=      5-min Rain = 0
KTAS 211636Z 21018G23KT 10/M03 A2988 RMK A01 T01001026  RH  041%=      5-min Rain = 0
KTAS 211637Z 21018KT 10/M03 A2988 RMK A01 T01011025  RH  041%=      5-min Rain = 0
KTAS 211638Z 21017KT 10/M03 A2988 RMK A01 T01011026  RH  041%=      5-min Rain = 0
KTAS 211639Z 21017KT 10/M03 A2988 RMK A01 T01011025  RH  041%=      5-min Rain = 0
KTAS 211640Z 21016G21KT 10/M03 A2988 RMK A01 T01021026  RH  041%=      5-min Rain = 0
KTAS 211641Z 20016G22KT 10/M03 A2988 RMK A01 T01031025  RH  041%=      5-min Rain = 0
KTAS 211642Z 21016KT 10/M03 A2988 RMK A01 T01041025  RH  040%=      5-min Rain = 0
KTAS 211643Z 21016KT 11/M02 A2988 RMK A01 T01051024  RH  040%=      5-min Rain = 0
KTAS 211644Z 21019KT 11/M03 A2988 RMK A01 T01061025  RH  040%=      5-min Rain = 0
KTAS 211645Z 21018KT 10/M03 A2988 RMK A01 T01041027  RH  040%=      5-min Rain = 0
KTAS 211646Z 20017KT 11/M03 A2987 RMK A01 T01051026  RH  040%=      5-min Rain = 0
KTAS 211647Z 20017KT 11/M03 A2987 RMK A01 T01051026  RH  040%=      5-min Rain = 0
KTAS 211648Z 21019KT 11/M03 A2987 RMK A01 T01061026  RH  040%=      5-min Rain = 0
KTAS 211649Z 21019KT 11/M03 A2987 RMK A01 T01071027  RH  039%=      5-min Rain = 0
KTAS 211650Z 20020KT 11/M03 A2987 RMK A01 T01071026  RH  039%=      5-min Rain = 0
KTAS 211651Z 21020KT 11/M03 A2987 RMK A01 T01061028  RH  039%=      5-min Rain = 0
KTAS 211652Z 21018KT 11/M03 A2987 RMK A01 T01051028  RH  039%=      5-min Rain = 0
KTAS 211653Z 21018KT 11/M03 A2987 RMK A01 T01071026  RH  039%=      5-min Rain = 0
KTAS 211654Z 21018KT 11/M03 A2987 RMK A01 T01091026  RH  039%=      5-min Rain = 0
KTAS 211655Z 20017KT 11/M03 A2987 RMK A01 T01111026  RH  038%=      5-min Rain = 0
KTAS 211656Z 21017KT 11/M03 A2987 RMK A01 T01121026  RH  038%=      5-min Rain = 0
KTAS 211657Z 21018KT 11/M03 A2987 RMK A01 T01121026  RH  038%=      5-min Rain = 0
KTAS 211658Z 20017KT 11/M03 A2987 RMK A01 T01111026  RH  038%=      5-min Rain = 0
KTAS 211659Z 20019KT 11/M03 A2987 RMK A01 T01101026  RH  038%=      5-min Rain = 0
KTAS 211700Z 21018KT 11/M03 A2987 RMK A01 T01101026  RH  038%=      5-min Rain = 0
KTAS 211701Z 21018KT 11/M03 A2987 RMK A01 T01111026  RH  038%=      5-min Rain = 0
KTAS 211702Z 21015KT 11/M03 A2987 RMK A01 T01121025  RH  038%=      5-min Rain = 0
KTAS 211703Z 21014KT 11/M02 A2987 RMK A01 T01141023  RH  038%=      5-min Rain = 0
KTAS 211704Z 20016KT 12/M02 A2987 RMK A01 T01161024  RH  038%=      5-min Rain = 0
KTAS 211705Z 20017KT 12/M03 A2987 RMK A01 T01151025  RH  038%=      5-min Rain = 0
KTAS 211706Z 21017KT 12/M03 A2987 RMK A01 T01161025  RH  037%=      5-min Rain = 0
KTAS 211707Z 21017KT 12/M03 A2986 RMK A01 T01161025  RH  037%=      5-min Rain = 0
KTAS 211708Z 20015KT 12/M02 A2986 RMK A01 T01161024  RH  038%=      5-min Rain = 0
KTAS 211709Z 20015KT 12/M02 A2986 RMK A01 T01181024  RH  037%=      5-min Rain = 0
KTAS 211710Z 20018KT 12/M02 A2986 RMK A01 T01191024  RH  037%=      5-min Rain = 0
KTAS 211711Z 20016KT 12/M03 A2986 RMK A01 T01191025  RH  036%=      5-min Rain = 0
KTAS 211712Z 20016KT 12/M02 A2986 RMK A01 T01211023  RH  036%=      5-min Rain = 0
KTAS 211713Z 20015G20KT 12/M02 A2986 RMK A01 T01231024  RH  036%=      5-min Rain = 0
KTAS 211714Z 21016KT 13/M03 A2986 RMK A01 T01261025  RH  035%=      5-min Rain = 0
KTAS 211715Z 21019KT 13/M03 A2986 RMK A01 T01261025  RH  035%=      5-min Rain = 0
KTAS 211716Z 20018G24KT 13/M03 A2986 RMK A01 T01251027  RH  035%=      5-min Rain = 0
KTAS 211717Z 20020KT 13/M03 A2986 RMK A01 T01261028  RH  034%=      5-min Rain = 0
KTAS 211718Z 20015KT 13/M03 A2986 RMK A01 T01281026  RH  034%=      5-min Rain = 0
KTAS 211719Z 21016G21KT 13/M03 A2986 RMK A01 T01311025  RH  034%=      5-min Rain = 0
KTAS 211720Z 20018KT 13/M03 A2986 RMK A01 T01291029  RH  033%=      5-min Rain = 0
KTAS 211721Z 20018KT 13/M03 A2986 RMK A01 T01281029  RH  033%=      5-min Rain = 0
KTAS 211722Z 20017KT 13/M03 A2985 RMK A01 T01291028  RH  033%=      5-min Rain = 0
KTAS 211723Z 20017G23KT 13/M03 A2986 RMK A01 T01311028  RH  033%=      5-min Rain = 0
KTAS 211724Z 20021KT 13/M03 A2985 RMK A01 T01311030  RH  033%=      5-min Rain = 0
KTAS 211725Z 21018KT 13/M03 A2985 RMK A01 T01321028  RH  033%=      5-min Rain = 0
KTAS 211726Z 20016KT 14/M03 A2985 RMK A01 T01361026  RH  032%=      5-min Rain = 0
KTAS 211727Z 20017KT 14/M03 A2986 RMK A01 T01391025  RH  032%=      5-min Rain = 0
KTAS 211728Z 20015G20KT 14/M02 A2985 RMK A01 T01441023  RH  031%=      5-min Rain = 0
KTAS 211729Z 21017KT 15/M03 A2985 RMK A01 T01461027  RH  030%=      5-min Rain = 0
KTAS 211730Z 20020KT 14/M03 A2985 RMK A01 T01421030  RH  030%=      5-min Rain = 0
KTAS 211731Z 20018KT 14/M03 A2985 RMK A01 T01391030  RH  031%=      5-min Rain = 0
KTAS 211732Z 20016KT 14/M03 A2985 RMK A01 T01391029  RH  031%=      5-min Rain = 0
KTAS 211733Z 20018G23KT 14/M03 A2985 RMK A01 T01411028  RH  031%=      5-min Rain = 0
KTAS 211734Z 20018G24KT 14/M03 A2985 RMK A01 T01441026  RH  031%=      5-min Rain = 0
KTAS 211735Z 20019G24KT 15/M03 A2985 RMK A01 T01451029  RH  030%=      5-min Rain = 0
KTAS 211736Z 20019KT 15/M03 A2985 RMK A01 T01451030  RH  030%=      5-min Rain = 0
KTAS 211737Z 20018KT 14/M03 A2985 RMK A01 T01431030  RH  030%=      5-min Rain = 0
KTAS 211738Z 19017KT 14/M03 A2985 RMK A01 T01431029  RH  030%=      5-min Rain = 0
KTAS 211739Z 20018G23KT 15/M03 A2985 RMK A01 T01451029  RH  030%=      5-min Rain = 0
KTAS 211740Z 19018G23KT 15/M03 A2985 RMK A01 T01461030  RH  029%=      5-min Rain = 0
KTAS 211741Z 20016KT 15/M03 A2985 RMK A01 T01471030  RH  029%=      5-min Rain = 0
KTAS 211742Z 20019KT 15/M03 A2985 RMK A01 T01461031  RH  029%=      5-min Rain = 0
KTAS 211743Z 20017G22KT 15/M03 A2985 RMK A01 T01451031  RH  030%=      5-min Rain = 0
KTAS 211744Z 20019KT 15/M03 A2985 RMK A01 T01451031  RH  029%=      5-min Rain = 0
KTAS 211745Z 20019KT 15/M03 A2985 RMK A01 T01451031  RH  029%=      5-min Rain = 0
KTAS 211746Z 19019KT 15/M03 A2985 RMK A01 T01451031  RH  029%=      5-min Rain = 0
KTAS 211747Z 19018G23KT 15/M03 A2985 RMK A01 T01451031  RH  029%=      5-min Rain = 0
KTAS 211748Z 20017KT 15/M03 A2985 RMK A01 T01481030  RH  029%=      5-min Rain = 0
KTAS 211749Z 20019KT 15/M03 A2985 RMK A01 T01521029  RH  029%=      5-min Rain = 0
KTAS 211750Z 19015KT 16/M03 A2985 RMK A01 T01551028  RH  028%=      5-min Rain = 0
KTAS 211751Z 19018G23KT 16/M03 A2985 RMK A01 T01581028  RH  028%=      5-min Rain = 0
KTAS 211752Z 19017KT 16/M03 A2984 RMK A01 T01611027  RH  027%=      5-min Rain = 0
KTAS 211753Z 20019KT 16/M03 A2984 RMK A01 T01631028  RH  027%=      5-min Rain = 0
KTAS 211754Z 20019KT 16/M03 A2984 RMK A01 T01601030  RH  027%=      5-min Rain = 0
KTAS 211755Z 19021KT 16/M03 A2984 RMK A01 T01601031  RH  027%=      5-min Rain = 0
KTAS 211756Z 20020KT 16/M03 A2984 RMK A01 T01611030  RH  027%=      5-min Rain = 0
KTAS 211757Z 20018G24KT 16/M03 A2984 RMK A01 T01641028  RH  027%=      5-min Rain = 0
KTAS 211758Z 20022KT 17/M03 A2984 RMK A01 T01671032  RH  025%=      5-min Rain = 0
KTAS 211759Z 20019KT 17/M03 A2984 RMK A01 T01651032  RH  026%=      5-min Rain = 0
KTAS 211800Z 19017KT 17/M03 A2984 RMK A01 T01661030  RH  026%=      5-min Rain = 0
KTAS 211801Z 19018KT 17/M03 A2984 RMK A01 T01731027  RH  025%=      5-min Rain = 0
KTAS 211802Z 20020KT 17/M03 A2984 RMK A01 T01731030  RH  025%=      5-min Rain = 0
KTAS 211803Z 20020KT 17/M03 A2984 RMK A01 T01701032  RH  025%=      5-min Rain = 0
KTAS 211804Z 21020KT 17/M03 A2984 RMK A01 T01701032  RH  025%=      5-min Rain = 0
KTAS 211805Z 21022KT 17/M04 A2984 RMK A01 T01691035  RH  025%=      5-min Rain = 0
KTAS 211806Z 20020KT 16/M04 A2984 RMK A01 T01641036  RH  025%=      5-min Rain = 0
KTAS 211807Z 19022G27KT 17/M03 A2984 RMK A01 T01661034  RH  025%=      5-min Rain = 0
KTAS 211808Z 19018KT 17/M03 A2984 RMK A01 T01681033  RH  025%=      5-min Rain = 0
KTAS 211809Z 20020KT 17/M03 A2984 RMK A01 T01731032  RH  024%=      5-min Rain = 0
KTAS 211810Z 19021KT 17/M04 A2984 RMK A01 T01711035  RH  024%=      5-min Rain = 0
KTAS 211811Z 19020KT 17/M03 A2984 RMK A01 T01711033  RH  025%=      5-min Rain = 0
KTAS 211812Z 19018KT 17/M03 A2984 RMK A01 T01721032  RH  025%=      5-min Rain = 0
KTAS 211813Z 20017KT 17/M03 A2984 RMK A01 T01731032  RH  025%=      5-min Rain = 0
KTAS 211814Z 20018G23KT 18/M03 A2984 RMK A01 T01751031  RH  024%=      5-min Rain = 0
KTAS 211815Z 20021KT 17/M04 A2983 RMK A01 T01731035  RH  024%=      5-min Rain = 0
KTAS 211816Z 20019G24KT 17/M04 A2983 RMK A01 T01711036  RH  024%=      5-min Rain = 0
KTAS 211817Z 20020KT 17/M03 A2983 RMK A01 T01711034  RH  024%=      5-min Rain = 0
KTAS 211818Z 19020KT 17/M04 A2983 RMK A01 T01711035  RH  024%=      5-min Rain = 0
KTAS 211819Z 20019KT 17/M03 A2983 RMK A01 T01721034  RH  024%=      5-min Rain = 0
KTAS 211820Z 20020KT 17/M03 A2983 RMK A01 T01731033  RH  024%=      5-min Rain = 0
KTAS 211821Z 20019KT 18/M03 A2983 RMK A01 T01771031  RH  024%=      5-min Rain = 0
KTAS 211822Z 20018KT 18/M03 A2983 RMK A01 T01781032  RH  024%=      5-min Rain = 0
KTAS 211823Z 19018G24KT 18/M03 A2983 RMK A01 T01791032  RH  024%=      5-min Rain = 0
KTAS 211824Z 20017G22KT 18/M03 A2983 RMK A01 T01801033  RH  023%=      5-min Rain = 0
KTAS 211825Z 20017G22KT 18/M03 A2983 RMK A01 T01811031  RH  023%=      5-min Rain = 0
KTAS 211826Z 20017KT 18/M03 A2983 RMK A01 T01821033  RH  023%=      5-min Rain = 0
KTAS 211827Z 20019KT 18/M03 A2983 RMK A01 T01801034  RH  023%=      5-min Rain = 0
KTAS 211828Z 21015G21KT 18/M03 A2982 RMK A01 T01791034  RH  023%=      5-min Rain = 0
KTAS 211829Z 20017G23KT 18/M03 A2982 RMK A01 T01821032  RH  023%=      5-min Rain = 0
KTAS 211830Z 20021KT 19/M04 A2982 RMK A01 T01851035  RH  022%=      5-min Rain = 0
KTAS 211831Z 20016KT 18/M04 A2982 RMK A01 T01831036  RH  022%=      5-min Rain = 0
KTAS 211832Z 20019KT 19/M03 A2982 RMK A01 T01851033  RH  022%=      5-min Rain = 0
KTAS 211833Z 19020KT 18/M04 A2982 RMK A01 T01831036  RH  022%=      5-min Rain = 0
KTAS 211834Z 19018KT 18/M04 A2982 RMK A01 T01831035  RH  022%=      5-min Rain = 0
KTAS 211835Z 20018KT 19/M04 A2982 RMK A01 T01851037  RH  022%=      5-min Rain = 0
KTAS 211836Z 20019G24KT 18/M04 A2982 RMK A01 T01841038  RH  022%=      5-min Rain = 0
KTAS 211837Z 19019G25KT 18/M04 A2982 RMK A01 T01831040  RH  022%=      5-min Rain = 0
KTAS 211838Z 19019KT 18/M04 A2982 RMK A01 T01821038  RH  022%=      5-min Rain = 0
KTAS 211839Z 19017KT 18/M04 A2982 RMK A01 T01831036  RH  022%=      5-min Rain = 0
KTAS 211840Z 20017KT 19/M04 A2982 RMK A01 T01851037  RH  022%=      5-min Rain = 0
KTAS 211841Z 20014KT 19/M04 A2982 RMK A01 T01871035  RH  022%=      5-min Rain = 0
KTAS 211842Z 20018KT 19/M03 A2981 RMK A01 T01921034  RH  021%=      5-min Rain = 0
KTAS 211843Z 19019G25KT 20/M03 A2981 RMK A01 T01971033  RH  021%=      5-min Rain = 0
KTAS 211844Z 20019G24KT 20/M04 A2981 RMK A01 T01981036  RH  020%=      5-min Rain = 0
KTAS 211845Z 19017KT 20/M04 A2981 RMK A01 T01981036  RH  020%=      5-min Rain = 0
KTAS 211846Z 20016G22KT 20/M03 A2981 RMK A01 T01991034  RH  020%=      5-min Rain = 0
KTAS 211847Z 20016G21KT 20/M04 A2981 RMK A01 T02001036  RH  020%=      5-min Rain = 0
KTAS 211848Z 20018KT 20/M04 A2981 RMK A01 T02011037  RH  020%=      5-min Rain = 0
KTAS 211849Z 20021KT 20/M04 A2981 RMK A01 T01991043  RH  019%=      5-min Rain = 0
KTAS 211850Z 21023KT 20/M05 A298 RMK A01 T01981047  RH  019%=      5-min Rain = 0
KTAS 211851Z 21017KT 20/M05 A298 RMK A01 T01961046  RH  019%=      5-min Rain = 0
KTAS 211852Z 20018G26KT 20/M04 A298 RMK A01 T02001042  RH  019%=      5-min Rain = 0
KTAS 211853Z 20020KT 20/M05 A298 RMK A01 T02001046  RH  019%=      5-min Rain = 0
KTAS 211854Z 19020G26KT 20/M05 A298 RMK A01 T01981046  RH  019%=      5-min Rain = 0
KTAS 211855Z 20019G24KT 20/M05 A298 RMK A01 T01971046  RH  019%=      5-min Rain = 0
KTAS 211856Z 21019KT 20/M05 A298 RMK A01 T01971046  RH  019%=      5-min Rain = 0
KTAS 211857Z 22019KT 20/M04 A298 RMK A01 T01991044  RH  019%=      5-min Rain = 0
KTAS 211858Z 21020KT 20/M05 A298 RMK A01 T02011046  RH  018%=      5-min Rain = 0
KTAS 211859Z 20018KT 20/M05 A298 RMK A01 T01991049  RH  018%=      5-min Rain = 0
KTAS 211900Z 20020G26KT 20/M05 A298 RMK A01 T01981048  RH  019%=      5-min Rain = 0
KTAS 211901Z 20017G23KT 20/M05 A298 RMK A01 T01971047  RH  019%=      5-min Rain = 0
KTAS 211902Z 20018G23KT 20/M05 A298 RMK A01 T01981048  RH  019%=      5-min Rain = 0
KTAS 211903Z 21018G24KT 20/M05 A2979 RMK A01 T01991045  RH  019%=      5-min Rain = 0
KTAS 211904Z 20016G21KT 20/M04 A2979 RMK A01 T02011043  RH  019%=      5-min Rain = 0
KTAS 211905Z 20019KT 20/M04 A2979 RMK A01 T02041044  RH  018%=      5-min Rain = 0
KTAS 211906Z 20017G22KT 21/M04 A2979 RMK A01 T02061042  RH  018%=      5-min Rain = 0
KTAS 211907Z 20022G27KT 21/M05 A2979 RMK A01 T02071045  RH  018%=      5-min Rain = 0
KTAS 211908Z 21020G26KT 20/M05 A2979 RMK A01 T02011046  RH  018%=      5-min Rain = 0
KTAS 211909Z 20020KT 20/M05 A2979 RMK A01 T01991045  RH  019%=      5-min Rain = 0
KTAS 211910Z 20017KT 20/M04 A2979 RMK A01 T01991044  RH  019%=      5-min Rain = 0
KTAS 211911Z 20021G27KT 20/M05 A2979 RMK A01 T02001045  RH  019%=      5-min Rain = 0
KTAS 211912Z 20019G24KT 20/M05 A2979 RMK A01 T02001045  RH  019%=      5-min Rain = 0
KTAS 211913Z 20018G23KT 20/M04 A2979 RMK A01 T02021043  RH  019%=      5-min Rain = 0
KTAS 211914Z 20019KT 20/M05 A2978 RMK A01 T02031045  RH  018%=      5-min Rain = 0
KTAS 211915Z 20015G20KT 20/M04 A2978 RMK A01 T02021044  RH  019%=      5-min Rain = 0
KTAS 211916Z 21019KT 20/M05 A2978 RMK A01 T02031045  RH  018%=      5-min Rain = 0
KTAS 211917Z 20018KT 20/M05 A2978 RMK A01 T02021045  RH  019%=      5-min Rain = 0
KTAS 211918Z 20019KT 20/M04 A2978 RMK A01 T02031044  RH  019%=      5-min Rain = 0
KTAS 211919Z 20019G25KT 20/M04 A2978 RMK A01 T02031044  RH  019%=      5-min Rain = 0
KTAS 211920Z 20021G27KT 20/M04 A2978 RMK A01 T02031044  RH  019%=      5-min Rain = 0
KTAS 211921Z 19020KT 20/M04 A2978 RMK A01 T02031043  RH  019%=      5-min Rain = 0
KTAS 211922Z 20023KT 20/M04 A2978 RMK A01 T02031044  RH  019%=      5-min Rain = 0
KTAS 211923Z 20022G27KT 20/M04 A2978 RMK A01 T02011044  RH  019%=      5-min Rain = 0
KTAS 211924Z 20019KT 20/M04 A2978 RMK A01 T02011042  RH  019%=      5-min Rain = 0
KTAS 211925Z 20024KT 20/M04 A2978 RMK A01 T02031043  RH  019%=      5-min Rain = 0
KTAS 211926Z 19023KT 20/M05 A2978 RMK A01 T02021045  RH  018%=      5-min Rain = 0
KTAS 211927Z 20020G26KT 20/M05 A2978 RMK A01 T02011045  RH  019%=      5-min Rain = 0
KTAS 211928Z 20021G26KT 20/M05 A2978 RMK A01 T02031046  RH  018%=      5-min Rain = 0
KTAS 211929Z 20020G26KT 20/M05 A2977 RMK A01 T02031047  RH  018%=      5-min Rain = 0
KTAS 211930Z 20021KT 20/M05 A2977 RMK A01 T02041047  RH  018%=      5-min Rain = 0
KTAS 211931Z 20019G25KT 20/M05 A2977 RMK A01 T02031047  RH  018%=      5-min Rain = 0
KTAS 211932Z 20020G25KT 20/M05 A2977 RMK A01 T02031046  RH  018%=      5-min Rain = 0
KTAS 211933Z 20019G24KT 20/M05 A2977 RMK A01 T02031046  RH  018%=      5-min Rain = 0
KTAS 211934Z 20020KT 20/M05 A2977 RMK A01 T02041047  RH  018%=      5-min Rain = 0
KTAS 211935Z 20019G24KT 20/M05 A2977 RMK A01 T02041046  RH  018%=      5-min Rain = 0
KTAS 211936Z 21019KT 21/M05 A2977 RMK A01 T02071046  RH  018%=      5-min Rain = 0
KTAS 211937Z 20017KT 21/M05 A2977 RMK A01 T02071048  RH  018%=      5-min Rain = 0
KTAS 211938Z 20022KT 21/M05 A2977 RMK A01 T02081051  RH  017%=      5-min Rain = 0
KTAS 211939Z 20020KT 21/M05 A2977 RMK A01 T02101051  RH  017%=      5-min Rain = 0
KTAS 211940Z 20018KT 21/M05 A2977 RMK A01 T02101051  RH  017%=      5-min Rain = 0
KTAS 211941Z 20021KT 21/M05 A2977 RMK A01 T02111051  RH  017%=      5-min Rain = 0
KTAS 211942Z 20020G25KT 21/M05 A2977 RMK A01 T02081052  RH  017%=      5-min Rain = 0
KTAS 211943Z 20019KT 21/M05 A2977 RMK A01 T02091050  RH  017%=      5-min Rain = 0
KTAS 211944Z 20015G21KT 21/M05 A2977 RMK A01 T02111047  RH  017%=      5-min Rain = 0
KTAS 211945Z 19021G26KT 21/M05 A2976 RMK A01 T02121050  RH  017%=      5-min Rain = 0
KTAS 211946Z 19021G26KT 21/M05 A2976 RMK A01 T02091051  RH  017%=      5-min Rain = 0
KTAS 211947Z 19018G24KT 21/M05 A2976 RMK A01 T02101051  RH  017%=      5-min Rain = 0
KTAS 211948Z 19019KT 21/M05 A2976 RMK A01 T02131049  RH  017%=      5-min Rain = 0
KTAS 211949Z 19020KT 22/M05 A2976 RMK A01 T02161049  RH  016%=      5-min Rain = 0
KTAS 211950Z 19018KT 22/M05 A2976 RMK A01 T02181048  RH  016%=      5-min Rain = 0
KTAS 211951Z 19020G27KT 22/M05 A2976 RMK A01 T02211047  RH  016%=      5-min Rain = 0
KTAS 211952Z 20022G27KT 22/M05 A2976 RMK A01 T02201050  RH  016%=      5-min Rain = 0
KTAS 211953Z 20022KT 22/M05 A2976 RMK A01 T02171052  RH  016%=      5-min Rain = 0
KTAS 211954Z 20017KT 22/M05 A2976 RMK A01 T02161049  RH  016%=      5-min Rain = 0
KTAS 211955Z 20017KT 22/M05 A2976 RMK A01 T02191049  RH  016%=      5-min Rain = 0
KTAS 211956Z 19018G24KT 22/M05 A2976 RMK A01 T02201050  RH  016%=      5-min Rain = 0
KTAS 211957Z 19020G25KT 22/M05 A2976 RMK A01 T02201049  RH  016%=      5-min Rain = 0
KTAS 211958Z 20020KT 22/M05 A2975 RMK A01 T02201049  RH  016%=      5-min Rain = 0
KTAS 211959Z 20019KT 22/M05 A2975 RMK A01 T02201049  RH  016%=      5-min Rain = 0
KTAS 212000Z 20019KT 22/M05 A2975 RMK A01 T02201049  RH  016%=      5-min Rain = 0
KTAS 212001Z 20021KT 22/M05 A2975 RMK A01 T02171050  RH  016%=      5-min Rain = 0
KTAS 212002Z 20020KT 22/M05 A2975 RMK A01 T02151050  RH  016%=      5-min Rain = 0
KTAS 212003Z 19019KT 22/M05 A2975 RMK A01 T02151051  RH  016%=      5-min Rain = 0
KTAS 212004Z 20018G24KT 22/M05 A2975 RMK A01 T02151048  RH  017%=      5-min Rain = 0
KTAS 212005Z 20020KT 22/M05 A2975 RMK A01 T02171048  RH  017%=      5-min Rain = 0
KTAS 212006Z 19017G23KT 22/M05 A2975 RMK A01 T02171046  RH  017%=      5-min Rain = 0
KTAS 212007Z 18021G26KT 22/M05 A2975 RMK A01 T02171047  RH  017%=      5-min Rain = 0
KTAS 212008Z 20021KT 22/M05 A2975 RMK A01 T02171045  RH  017%=      5-min Rain = 0
KTAS 212009Z 20023KT 22/M05 A2975 RMK A01 T02151048  RH  017%=      5-min Rain = 0
KTAS 212010Z 19020G25KT 21/M05 A2975 RMK A01 T02131047  RH  017%=      5-min Rain = 0
KTAS 212011Z 19022KT 22/M05 A2975 RMK A01 T02151046  RH  017%=      5-min Rain = 0
KTAS 212012Z 20018KT 22/M05 A2975 RMK A01 T02151045  RH  017%=      5-min Rain = 0
KTAS 212013Z 19017KT 22/M04 A2975 RMK A01 T02161044  RH  017%=      5-min Rain = 0
KTAS 212014Z 19017G24KT 22/M04 A2975 RMK A01 T02181041  RH  017%=      5-min Rain = 0
KTAS 212015Z 18021KT 22/M04 A2975 RMK A01 T02171043  RH  017%=      5-min Rain = 0
KTAS 212016Z 19017G25KT 22/M04 A2974 RMK A01 T02161041  RH  017%=      5-min Rain = 0
KTAS 212017Z 20022KT 22/M04 A2974 RMK A01 T02161044  RH  017%=      5-min Rain = 0
KTAS 212018Z 20020KT 21/M04 A2974 RMK A01 T02131044  RH  017%=      5-min Rain = 0
KTAS 212019Z 20021KT 21/M05 A2974 RMK A01 T02131047  RH  017%=      5-min Rain = 0
KTAS 212020Z 20016KT 21/M05 A2974 RMK A01 T02121047  RH  017%=      5-min Rain = 0
KTAS 212021Z 20017G22KT 21/M04 A2974 RMK A01 T02141044  RH  017%=      5-min Rain = 0
KTAS 212022Z 20018G26KT 22/M05 A2974 RMK A01 T02161045  RH  017%=      5-min Rain = 0
KTAS 212023Z 20020KT 22/M05 A2974 RMK A01 T02151047  RH  017%=      5-min Rain = 0
KTAS 212024Z 20022G28KT 22/M05 A2974 RMK A01 T02151049  RH  017%=      5-min Rain = 0
KTAS 212025Z 20014G20KT 22/M05 A2974 RMK A01 T02161048  RH  017%=      5-min Rain = 0
KTAS 212026Z 20015G20KT 22/M05 A2974 RMK A01 T02171048  RH  016%=      5-min Rain = 0
KTAS 212027Z 20018KT 22/M05 A2974 RMK A01 T02171049  RH  016%=      5-min Rain = 0
KTAS 212028Z 19019KT 22/M05 A2974 RMK A01 T02161048  RH  017%=      5-min Rain = 0
KTAS 212029Z 20013KT 22/M05 A2974 RMK A01 T02171045  RH  017%=      5-min Rain = 0
KTAS 212030Z 20018KT 22/M05 A2974 RMK A01 T02191047  RH  016%=      5-min Rain = 0
KTAS 212031Z 20017G23KT 22/M05 A2974 RMK A01 T02171047  RH  017%=      5-min Rain = 0
KTAS 212032Z 19018KT 22/M05 A2973 RMK A01 T02171046  RH  017%=      5-min Rain = 0
KTAS 212033Z 19020KT 22/M05 A2973 RMK A01 T02171049  RH  016%=      5-min Rain = 0
KTAS 212034Z 20017G25KT 22/M05 A2973 RMK A01 T02181048  RH  016%=      5-min Rain = 0
KTAS 212035Z 19019G25KT 22/M05 A2973 RMK A01 T02231046  RH  016%=      5-min Rain = 0
KTAS 212036Z 19019KT 23/M05 A2973 RMK A01 T02251049  RH  016%=      5-min Rain = 0
KTAS 212037Z 19016G21KT 23/M05 A2973 RMK A01 T02271047  RH  016%=      5-min Rain = 0
KTAS 212038Z 20018G24KT 23/M05 A2973 RMK A01 T02321047  RH  015%=      5-min Rain = 0
KTAS 212039Z 19022KT 23/M05 A2973 RMK A01 T02281053  RH  015%=      5-min Rain = 0
KTAS 212040Z 19019G24KT 22/M05 A2973 RMK A01 T02241053  RH  015%=      5-min Rain = 0
KTAS 212041Z 20020G27KT 22/M05 A2972 RMK A01 T02231054  RH  015%=      5-min Rain = 0
KTAS 212042Z 20022KT 22/M06 A2972 RMK A01 T02191057  RH  015%=      5-min Rain = 0
KTAS 212043Z 20020G26KT 22/M06 A2972 RMK A01 T02171055  RH  016%=      5-min Rain = 0
KTAS 212044Z 20023G28KT 22/M06 A2972 RMK A01 T02181055  RH  016%=      5-min Rain = 0
KTAS 212045Z 20022KT 22/M06 A2972 RMK A01 T02181055  RH  016%=      5-min Rain = 0
KTAS 212046Z 20021G27KT 22/M05 A2972 RMK A01 T02181054  RH  016%=      5-min Rain = 0
KTAS 212047Z 20022KT 22/M05 A2972 RMK A01 T02191054  RH  016%=      5-min Rain = 0
KTAS 212048Z 20020G25KT 22/M05 A2972 RMK A01 T02181054  RH  016%=      5-min Rain = 0
KTAS 212049Z 20018G23KT 22/M05 A2972 RMK A01 T02181052  RH  016%=      5-min Rain = 0
KTAS 212050Z 20019G26KT 22/M05 A2972 RMK A01 T02201052  RH  016%=      5-min Rain = 0
KTAS 212051Z 19023KT 22/M05 A2972 RMK A01 T02191053  RH  016%=      5-min Rain = 0
KTAS 212052Z 20023KT 22/M06 A2972 RMK A01 T02181057  RH  015%=      5-min Rain = 0
KTAS 212053Z 20019G24KT 22/M06 A2972 RMK A01 T02171056  RH  016%=      5-min Rain = 0
KTAS 212054Z 20017G22KT 22/M05 A2972 RMK A01 T02181052  RH  016%=      5-min Rain = 0
KTAS 212055Z 20019KT 22/M05 A2972 RMK A01 T02201053  RH  016%=      5-min Rain = 0
KTAS 212056Z 20020KT 22/M05 A2972 RMK A01 T02211053  RH  016%=      5-min Rain = 0
KTAS 212057Z 20022G29KT 22/M05 A2972 RMK A01 T02211054  RH  015%=      5-min Rain = 0
KTAS 212058Z 19021KT 22/M05 A2972 RMK A01 T02211053  RH  015%=      5-min Rain = 0
KTAS 212059Z 20019KT 22/M05 A2972 RMK A01 T02201053  RH  016%=      5-min Rain = 0
KTAS 212100Z 20018KT 22/M05 A2972 RMK A01 T02201051  RH  016%=      5-min Rain = 0
KTAS 212101Z 19015KT 22/M05 A2972 RMK A01 T02231049  RH  016%=      5-min Rain = 0
KTAS 212102Z 20017KT 23/M05 A2972 RMK A01 T02251049  RH  016%=      5-min Rain = 0
KTAS 212103Z 20019KT 23/M05 A2972 RMK A01 T02261050  RH  015%=      5-min Rain = 0
KTAS 212104Z 20016KT 23/M05 A2972 RMK A01 T02251050  RH  015%=      5-min Rain = 0
KTAS 212105Z 19020KT 23/M05 A2972 RMK A01 T02261052  RH  015%=      5-min Rain = 0
KTAS 212106Z 20021KT 23/M05 A2972 RMK A01 T02271051  RH  015%=      5-min Rain = 0
KTAS 212107Z 20021KT 23/M05 A2972 RMK A01 T02271052  RH  015%=      5-min Rain = 0
KTAS 212108Z 20016G22KT 23/M05 A2972 RMK A01 T02271050  RH  015%=      5-min Rain = 0
KTAS 212109Z 20016G23KT 23/M05 A2972 RMK A01 T02311048  RH  015%=      5-min Rain = 0
KTAS 212110Z 20018KT 23/M05 A2972 RMK A01 T02321052  RH  015%=      5-min Rain = 0
KTAS 212111Z 20017KT 23/M05 A2971 RMK A01 T02311052  RH  015%=      5-min Rain = 0
KTAS 212112Z 19021KT 23/M05 A2971 RMK A01 T02311052  RH  015%=      5-min Rain = 0
KTAS 212113Z 20019KT 23/M05 A2971 RMK A01 T02291054  RH  015%=      5-min Rain = 0
KTAS 212114Z 20019G24KT 23/M05 A2971 RMK A01 T02301052  RH  015%=      5-min Rain = 0
KTAS 212115Z 19018G24KT 23/M05 A2971 RMK A01 T02311051  RH  015%=      5-min Rain = 0
KTAS 212116Z 19018G23KT 23/M05 A2971 RMK A01 T02331054  RH  014%=      5-min Rain = 0
KTAS 212117Z 20019KT 23/M05 A2971 RMK A01 T02341054  RH  014%=      5-min Rain = 0
KTAS 212118Z 20018KT 23/M06 A2971 RMK A01 T02321056  RH  014%=      5-min Rain = 0
KTAS 212119Z 19021G26KT 23/M06 A2971 RMK A01 T02321056  RH  014%=      5-min Rain = 0
KTAS 212120Z 20021KT 23/M06 A2971 RMK A01 T02301058  RH  014%=      5-min Rain = 0
KTAS 212121Z 20020G27KT 23/M06 A2971 RMK A01 T02291057  RH  014%=      5-min Rain = 0
KTAS 212122Z 20022KT 23/M06 A2971 RMK A01 T02281058  RH  014%=      5-min Rain = 0
KTAS 212123Z 20020KT 23/M06 A2971 RMK A01 T02271057  RH  015%=      5-min Rain = 0
KTAS 212124Z 20019KT 23/M06 A2971 RMK A01 T02271055  RH  015%=      5-min Rain = 0
KTAS 212125Z 20020KT 23/M06 A2971 RMK A01 T02281055  RH  015%=      5-min Rain = 0
KTAS 212126Z 20022G28KT 23/M06 A2971 RMK A01 T02281057  RH  014%=      5-min Rain = 0
KTAS 212127Z 20020G26KT 23/M06 A2971 RMK A01 T02281059  RH  014%=      5-min Rain = 0
KTAS 212128Z 20014KT 23/M06 A2971 RMK A01 T02281056  RH  015%=      5-min Rain = 0
KTAS 212129Z 19019KT 23/M06 A2971 RMK A01 T02311056  RH  014%=      5-min Rain = 0
KTAS 212130Z 20020KT 23/M06 A2971 RMK A01 T02301056  RH  014%=      5-min Rain = 0
KTAS 212131Z 21018KT 23/M05 A2971 RMK A01 T02301054  RH  015%=      5-min Rain = 0
KTAS 212132Z 21019KT 23/M05 A2971 RMK A01 T02291054  RH  015%=      5-min Rain = 0
KTAS 212133Z 21017KT 23/M06 A2971 RMK A01 T02311055  RH  014%=      5-min Rain = 0
KTAS 212134Z 21018KT 24/M06 A2971 RMK A01 T02351064  RH  013%=      5-min Rain = 0
KTAS 212135Z 21021KT 24/M07 A2971 RMK A01 T02361073  RH  012%=      5-min Rain = 0
KTAS 212136Z 21017G22KT 24/M07 A2971 RMK A01 T02361073  RH  012%=      5-min Rain = 0
KTAS 212137Z 21020KT 24/M07 A2971 RMK A01 T02361074  RH  012%=      5-min Rain = 0
KTAS 212138Z 21022G27KT 24/M08 A2971 RMK A01 T02351075  RH  012%=      5-min Rain = 0
KTAS 212139Z 20019G27KT 24/M08 A2971 RMK A01 T02351076  RH  012%=      5-min Rain = 0
KTAS 212140Z 21021G26KT 24/M08 A2971 RMK A01 T02351077  RH  012%=      5-min Rain = 0
KTAS 212141Z 21023G28KT 23/M08 A2971 RMK A01 T02341078  RH  012%=      5-min Rain = 0
KTAS 212142Z 21023G28KT 23/M08 A2971 RMK A01 T02331082  RH  012%=      5-min Rain = 0
KTAS 212143Z 21018KT 23/M08 A297 RMK A01 T02321080  RH  012%=      5-min Rain = 0
KTAS 212144Z 21018KT 23/M08 A2971 RMK A01 T02321080  RH  012%=      5-min Rain = 0
KTAS 212145Z 20017G24KT 23/M08 A297 RMK A01 T02321081  RH  012%=      5-min Rain = 0
KTAS 212146Z 21019G24KT 23/M08 A2971 RMK A01 T02321080  RH  012%=      5-min Rain = 0
KTAS 212147Z 21021KT 23/M08 A2971 RMK A01 T02311079  RH  012%=      5-min Rain = 0
KTAS 212148Z 21019G28KT 23/M08 A2971 RMK A01 T02311076  RH  012%=      5-min Rain = 0
KTAS 212149Z 21022G28KT 23/M08 A297 RMK A01 T02301079  RH  012%=      5-min Rain = 0
KTAS 212150Z 22021KT 23/M08 A2971 RMK A01 T02291079  RH  012%=      5-min Rain = 0
KTAS 212151Z 22021KT 23/M08 A297 RMK A01 T02281079  RH  012%=      5-min Rain = 0
KTAS 212152Z 21018KT 23/M08 A297 RMK A01 T02281078  RH  012%=      5-min Rain = 0
KTAS 212153Z 22016KT 23/M08 A297 RMK A01 T02291075  RH  012%=      5-min Rain = 0
KTAS 212154Z 21020KT 23/M08 A297 RMK A01 T02291076  RH  012%=      5-min Rain = 0
KTAS 212155Z 21022KT 23/M08 A297 RMK A01 T02281079  RH  012%=      5-min Rain = 0
KTAS 212156Z 21019KT 23/M08 A297 RMK A01 T02281078  RH  012%=      5-min Rain = 0
KTAS 212157Z 21018G23KT 23/M08 A297 RMK A01 T02271077  RH  012%=      5-min Rain = 0
KTAS 212158Z 21020KT 23/M08 A297 RMK A01 T02271079  RH  012%=      5-min Rain = 0
KTAS 212159Z 21023KT 23/M08 A297 RMK A01 T02271080  RH  012%=      5-min Rain = 0
KTAS 212200Z 21022KT 23/M08 A297 RMK A01 T02271080  RH  012%=      5-min Rain = 0
KTAS 212201Z 21021KT 23/M08 A297 RMK A01 T02271079  RH  012%=      5-min Rain = 0
KTAS 212202Z 21021G27KT 23/M08 A297 RMK A01 T02271080  RH  012%=      5-min Rain = 0
KTAS 212203Z 22021G30KT 23/M08 A297 RMK A01 T02271079  RH  012%=      5-min Rain = 0
KTAS 212204Z 22021KT 23/M08 A2969 RMK A01 T02271079  RH  012%=      5-min Rain = 0
KTAS 212205Z 21023KT 23/M08 A2969 RMK A01 T02271080  RH  012%=      5-min Rain = 0
KTAS 212206Z 21023KT 23/M08 A2969 RMK A01 T02271080  RH  012%=      5-min Rain = 0
KTAS 212207Z 21022G28KT 23/M08 A297 RMK A01 T02271078  RH  012%=      5-min Rain = 0
KTAS 212208Z 21022G27KT 23/M08 A297 RMK A01 T02271079  RH  012%=      5-min Rain = 0
KTAS 212209Z 21018KT 23/M08 A297 RMK A01 T02261076  RH  013%=      5-min Rain = 0
KTAS 212210Z 20014KT 23/M07 A297 RMK A01 T02251071  RH  013%=      5-min Rain = 0
KTAS 212211Z 20014KT 22/M07 A297 RMK A01 T02241071  RH  013%=      5-min Rain = 0
KTAS 212212Z 20017KT 22/M07 A297 RMK A01 T02231068  RH  014%=      5-min Rain = 0
KTAS 212213Z 20020KT 22/M07 A297 RMK A01 T02221066  RH  014%=      5-min Rain = 0
KTAS 212214Z 20019KT 22/M06 A2969 RMK A01 T02201064  RH  014%=      5-min Rain = 0
KTAS 212215Z 20022KT 22/M06 A2969 RMK A01 T02201063  RH  014%=      5-min Rain = 0
KTAS 212216Z 20018G24KT 22/M06 A2969 RMK A01 T02191061  RH  015%=      5-min Rain = 0
KTAS 212217Z 20017KT 22/M06 A2969 RMK A01 T02191061  RH  015%=      5-min Rain = 0
KTAS 212218Z 20018KT 22/M06 A297 RMK A01 T02191062  RH  015%=      5-min Rain = 0
KTAS 212219Z 20020KT 22/M06 A297 RMK A01 T02191063  RH  015%=      5-min Rain = 0
KTAS 212220Z 20020KT 22/M06 A297 RMK A01 T02191063  RH  014%=      5-min Rain = 0
KTAS 212221Z 20019KT 22/M06 A297 RMK A01 T02191063  RH  014%=      5-min Rain = 0
KTAS 212222Z 20018KT 22/M06 A297 RMK A01 T02191063  RH  015%=      5-min Rain = 0
KTAS 212223Z 20017KT 22/M06 A297 RMK A01 T02191062  RH  015%=      5-min Rain = 0
KTAS 212224Z 20020KT 22/M06 A297 RMK A01 T02191063  RH  015%=      5-min Rain = 0
KTAS 212225Z 20019G24KT 22/M06 A2969 RMK A01 T02191062  RH  015%=      5-min Rain = 0
KTAS 212226Z 20017G22KT 22/M06 A2969 RMK A01 T02191062  RH  015%=      5-min Rain = 0
KTAS 212227Z 20016KT 22/M06 A2969 RMK A01 T02191062  RH  015%=      5-min Rain = 0
KTAS 212228Z 19016KT 22/M06 A2969 RMK A01 T02201061  RH  015%=      5-min Rain = 0
KTAS 212229Z 19017KT 22/M06 A2969 RMK A01 T02201059  RH  015%=      5-min Rain = 0
KTAS 212230Z 19016KT 22/M06 A2969 RMK A01 T02191058  RH  015%=      5-min Rain = 0
KTAS 212231Z 19019KT 22/M06 A2969 RMK A01 T02191057  RH  015%=      5-min Rain = 0
KTAS 212232Z 19017KT 22/M06 A2969 RMK A01 T02191057  RH  015%=      5-min Rain = 0
KTAS 212233Z 19015KT 22/M06 A2969 RMK A01 T02191056  RH  015%=      5-min Rain = 0
KTAS 212234Z 19014G19KT 22/M05 A2969 RMK A01 T02191054  RH  016%=      5-min Rain = 0
KTAS 212235Z 19018KT 22/M06 A2969 RMK A01 T02201055  RH  015%=      5-min Rain = 0
KTAS 212236Z 19018KT 22/M05 A2969 RMK A01 T02201054  RH  015%=      5-min Rain = 0
KTAS 212237Z 19016KT 22/M05 A2969 RMK A01 T02211054  RH  015%=      5-min Rain = 0
KTAS 212238Z 19016KT 22/M05 A2969 RMK A01 T02221053  RH  015%=      5-min Rain = 0
KTAS 212239Z 19018G23KT 22/M06 A2969 RMK A01 T02221055  RH  015%=      5-min Rain = 0
KTAS 212240Z 19019G24KT 22/M06 A2969 RMK A01 T02211056  RH  015%=      5-min Rain = 0
KTAS 212241Z 19018G26KT 22/M06 A2969 RMK A01 T02211056  RH  015%=      5-min Rain = 0
KTAS 212242Z 19020G25KT 22/M06 A2969 RMK A01 T02201057  RH  015%=      5-min Rain = 0
KTAS 212243Z 19021G26KT 22/M06 A2969 RMK A01 T02191059  RH  015%=      5-min Rain = 0
KTAS 212244Z 19017KT 22/M06 A2969 RMK A01 T02181059  RH  015%=      5-min Rain = 0
KTAS 212245Z 20020G25KT 22/M06 A2969 RMK A01 T02171058  RH  015%=      5-min Rain = 0
KTAS 212246Z 19021G26KT 22/M06 A2969 RMK A01 T02171059  RH  015%=      5-min Rain = 0
KTAS 212247Z 19016KT 22/M06 A2969 RMK A01 T02171058  RH  015%=      5-min Rain = 0
KTAS 212248Z 18015KT 22/M06 A2969 RMK A01 T02161055  RH  016%=      5-min Rain = 0
KTAS 212249Z 17017KT 22/M04 A2969 RMK A01 T02151044  RH  017%=      5-min Rain = 0
KTAS 212250Z 18018KT 21/M04 A2969 RMK A01 T02111035  RH  019%=      5-min Rain = 0
KTAS 212251Z 18019KT 21/M03 A2969 RMK A01 T02091031  RH  020%=      5-min Rain = 0
KTAS 212252Z 18018KT 21/M03 A2969 RMK A01 T02071029  RH  020%=      5-min Rain = 0
KTAS 212253Z 18017G22KT 21/M03 A2969 RMK A01 T02061028  RH  021%=      5-min Rain = 0
KTAS 212254Z 17020KT 21/M03 A2969 RMK A01 T02051027  RH  021%=      5-min Rain = 0
KTAS 212255Z 17018KT 20/M03 A2969 RMK A01 T02041026  RH  021%=      5-min Rain = 0
KTAS 212256Z 18019KT 20/M03 A2969 RMK A01 T02041026  RH  021%=      5-min Rain = 0
KTAS 212257Z 17018KT 20/M03 A2969 RMK A01 T02031025  RH  021%=      5-min Rain = 0
KTAS 212258Z 17015KT 20/M02 A2969 RMK A01 T02031024  RH  022%=      5-min Rain = 0
KTAS 212259Z 17017KT 20/M02 A2969 RMK A01 T02021024  RH  022%=      5-min Rain = 0
KTAS 212300Z 17019G24KT 20/M02 A2969 RMK A01 T02021024  RH  022%=      5-min Rain = 0
KTAS 212301Z 17017G22KT 20/M02 A2969 RMK A01 T02011024  RH  022%=      5-min Rain = 0
KTAS 212302Z 17015KT 20/M02 A2968 RMK A01 T02011024  RH  022%=      5-min Rain = 0
KTAS 212303Z 17018KT 20/M02 A2968 RMK A01 T02001024  RH  022%=      5-min Rain = 0
KTAS 212304Z 17016KT 20/M02 A2968 RMK A01 T02001023  RH  022%=      5-min Rain = 0
KTAS 212305Z 17014G19KT 20/M02 A2968 RMK A01 T02001023  RH  022%=      5-min Rain = 0
KTAS 212306Z 17016KT 20/M02 A2968 RMK A01 T01991023  RH  022%=      5-min Rain = 0
KTAS 212307Z 17016KT 20/M02 A2968 RMK A01 T01991023  RH  022%=      5-min Rain = 0
KTAS 212308Z 17015KT 20/M02 A2968 RMK A01 T01991022  RH  022%=      5-min Rain = 0
KTAS 212309Z 17013KT 20/M02 A2969 RMK A01 T01991021  RH  022%=      5-min Rain = 0
KTAS 212310Z 17016KT 20/M02 A2969 RMK A01 T01991021  RH  023%=      5-min Rain = 0
KTAS 212311Z 17016KT 20/M02 A2969 RMK A01 T01981021  RH  023%=      5-min Rain = 0
KTAS 212312Z 17015KT 20/M02 A2969 RMK A01 T01981020  RH  023%=      5-min Rain = 0
KTAS 212313Z 18016G22KT 20/M02 A2969 RMK A01 T01971020  RH  023%=      5-min Rain = 0
KTAS 212314Z 18015KT 20/M02 A2969 RMK A01 T01971020  RH  023%=      5-min Rain = 0
KTAS 212315Z 18014KT 20/M02 A2969 RMK A01 T01971021  RH  023%=      5-min Rain = 0
KTAS 212316Z 18016KT 20/M02 A2969 RMK A01 T01971021  RH  023%=      5-min Rain = 0
KTAS 212317Z 18017KT 20/M02 A2968 RMK A01 T01971021  RH  023%=      5-min Rain = 0
KTAS 212318Z 18016KT 20/M02 A2969 RMK A01 T01961021  RH  023%=      5-min Rain = 0
KTAS 212319Z 18016KT 20/M02 A2969 RMK A01 T01961021  RH  023%=      5-min Rain = 0
KTAS 212320Z 18014KT 20/M02 A2969 RMK A01 T01951020  RH  023%=      5-min Rain = 0
KTAS 212321Z 19015KT 20/M02 A2969 RMK A01 T01951020  RH  023%=      5-min Rain = 0
KTAS 212322Z 18016KT 19/M02 A2969 RMK A01 T01941020  RH  023%=      5-min Rain = 0
KTAS 212323Z 18015KT 19/M02 A2968 RMK A01 T01931019  RH  024%=      5-min Rain = 0
KTAS 212324Z 18017KT 19/M02 A2968 RMK A01 T01931019  RH  024%=      5-min Rain = 0
KTAS 212325Z 19015KT 19/M02 A2968 RMK A01 T01931019  RH  024%=      5-min Rain = 0
KTAS 212326Z 18016KT 19/M02 A2968 RMK A01 T01921018  RH  024%=      5-min Rain = 0
KTAS 212327Z 18015KT 19/M02 A2968 RMK A01 T01921018  RH  024%=      5-min Rain = 0
KTAS 212328Z 18015KT 19/M02 A2968 RMK A01 T01921018  RH  024%=      5-min Rain = 0
KTAS 212329Z 18014KT 19/M02 A2968 RMK A01 T01911018  RH  024%=      5-min Rain = 0
KTAS 212330Z 18013KT 19/M02 A2969 RMK A01 T01911017  RH  024%=      5-min Rain = 0
KTAS 212331Z 18014KT 19/M02 A2969 RMK A01 T01901017  RH  025%=      5-min Rain = 0
KTAS 212332Z 17013G18KT 19/M02 A2969 RMK A01 T01891017  RH  025%=      5-min Rain = 0
KTAS 212333Z 18014KT 19/M02 A2969 RMK A01 T01891017  RH  025%=      5-min Rain = 0
KTAS 212334Z 18014KT 19/M02 A2969 RMK A01 T01891017  RH  025%=      5-min Rain = 0
KTAS 212335Z 18014KT 19/M02 A2969 RMK A01 T01881017  RH  025%=      5-min Rain = 0
KTAS 212336Z 18015KT 19/M02 A2969 RMK A01 T01871016  RH  025%=      5-min Rain = 0
KTAS 212337Z 18014KT 19/M02 A2969 RMK A01 T01871016  RH  025%=      5-min Rain = 0
KTAS 212338Z 17014KT 19/M02 A2969 RMK A01 T01871016  RH  025%=      5-min Rain = 0
KTAS 212339Z 17012KT 19/M02 A2969 RMK A01 T01861015  RH  025%=      5-min Rain = 0
KTAS 212340Z 17013KT 19/M02 A2968 RMK A01 T01861015  RH  025%=      5-min Rain = 0
KTAS 212341Z 18013G18KT 19/M02 A2968 RMK A01 T01861015  RH  026%=      5-min Rain = 0
KTAS 212342Z 18015KT 19/M02 A2968 RMK A01 T01861015  RH  026%=      5-min Rain = 0
KTAS 212343Z 18014KT 19/M02 A2968 RMK A01 T01861015  RH  026%=      5-min Rain = 0
KTAS 212344Z 18014KT 19/M02 A2968 RMK A01 T01851015  RH  026%=      5-min Rain = 0
KTAS 212345Z 17014KT 19/M02 A2968 RMK A01 T01851015  RH  026%=      5-min Rain = 0
KTAS 212346Z 18015KT 19/M02 A2968 RMK A01 T01851015  RH  026%=      5-min Rain = 0
KTAS 212347Z 18015KT 18/M02 A2968 RMK A01 T01841015  RH  026%=      5-min Rain = 0
KTAS 212348Z 17015KT 18/M02 A2968 RMK A01 T01831015  RH  026%=      5-min Rain = 0
KTAS 212349Z 17014KT 18/M02 A2968 RMK A01 T01831015  RH  026%=      5-min Rain = 0
KTAS 212350Z 17013KT 18/M01 A2968 RMK A01 T01831014  RH  026%=      5-min Rain = 0
KTAS 212351Z 18014KT 18/M01 A2968 RMK A01 T01821014  RH  026%=      5-min Rain = 0
KTAS 212352Z 17014KT 18/M01 A2968 RMK A01 T01821014  RH  026%=      5-min Rain = 0
KTAS 212353Z 17015KT 18/M01 A2968 RMK A01 T01821014  RH  026%=      5-min Rain = 0
KTAS 212354Z 17013KT 18/M01 A2968 RMK A01 T01811014  RH  027%=      5-min Rain = 0
KTAS 212355Z 18015KT 18/M01 A2968 RMK A01 T01811014  RH  027%=      5-min Rain = 0
KTAS 212356Z 17015KT 18/M01 A2968 RMK A01 T01801014  RH  027%=      5-min Rain = 0
KTAS 212357Z 18012KT 18/M01 A2968 RMK A01 T01801013  RH  027%=      5-min Rain = 0
KTAS 212358Z 18014KT 18/M01 A2968 RMK A01 T01781013  RH  027%=      5-min Rain = 0
KTAS 212359Z 18015KT 18/M01 A2968 RMK A01 T01791013  RH  027%=      5-min Rain = 0
KTAS 220000Z 17017KT 18/M01 A2968 RMK A01 T01791013  RH  027%=      5-min Rain = 0
KTAS 220001Z 18018KT 18/M01 A2968 RMK A01 T01791012  RH  027%=      5-min Rain = 0
KTAS 220002Z 18017KT 18/M01 A2968 RMK A01 T01791013  RH  027%=      5-min Rain = 0
KTAS 220003Z 18016G21KT 18/M01 A2968 RMK A01 T01781013  RH  027%=      5-min Rain = 0
KTAS 220004Z 18017KT 18/M01 A2968 RMK A01 T01781013  RH  027%=      5-min Rain = 0
KTAS 220005Z 18018KT 18/M01 A2968 RMK A01 T01771013  RH  027%=      5-min Rain = 0
KTAS 220006Z 17017KT 18/M01 A2968 RMK A01 T01771013  RH  027%=      5-min Rain = 0
KTAS 220007Z 18016KT 18/M01 A2968 RMK A01 T01761013  RH  028%=      5-min Rain = 0
KTAS 220008Z 18019KT 18/M01 A2968 RMK A01 T01761013  RH  028%=      5-min Rain = 0
KTAS 220009Z 18016KT 18/M01 A2968 RMK A01 T01761013  RH  028%=      5-min Rain = 0
KTAS 220010Z 18016KT 18/M01 A2968 RMK A01 T01751013  RH  028%=      5-min Rain = 0
KTAS 220011Z 18015KT 18/M01 A2968 RMK A01 T01751013  RH  028%=      5-min Rain = 0
KTAS 220012Z 18015KT 17/M01 A2968 RMK A01 T01741013  RH  028%=      5-min Rain = 0
KTAS 220013Z 18016KT 17/M01 A2968 RMK A01 T01731012  RH  028%=      5-min Rain = 0
KTAS 220014Z 18017KT 17/M01 A2968 RMK A01 T01721012  RH  028%=      5-min Rain = 0
KTAS 220015Z 18018KT 17/M01 A2968 RMK A01 T01721012  RH  029%=      5-min Rain = 0
KTAS 220016Z 18017KT 17/M01 A2968 RMK A01 T01721012  RH  029%=      5-min Rain = 0
KTAS 220017Z 18015KT 17/M01 A2968 RMK A01 T01711012  RH  029%=      5-min Rain = 0
KTAS 220018Z 18014KT 17/M01 A2968 RMK A01 T01701012  RH  029%=      5-min Rain = 0
KTAS 220019Z 18015KT 17/M01 A2968 RMK A01 T01691012  RH  029%=      5-min Rain = 0
KTAS 220020Z 17015KT 17/M01 A2968 RMK A01 T01691012  RH  029%=      5-min Rain = 0
KTAS 220021Z 17015KT 17/M01 A2968 RMK A01 T01691012  RH  029%=      5-min Rain = 0
KTAS 220022Z 18013KT 17/M01 A2968 RMK A01 T01681012  RH  029%=      5-min Rain = 0
KTAS 220023Z 18015KT 17/M01 A2968 RMK A01 T01671012  RH  030%=      5-min Rain = 0
KTAS 220024Z 18017KT 17/M01 A2968 RMK A01 T01661012  RH  030%=      5-min Rain = 0
KTAS 220025Z 17017KT 17/M01 A2968 RMK A01 T01661012  RH  030%=      5-min Rain = 0
KTAS 220026Z 17017G22KT 17/M01 A2968 RMK A01 T01661011  RH  030%=      5-min Rain = 0
KTAS 220027Z 17015KT 17/M01 A2968 RMK A01 T01661011  RH  030%=      5-min Rain = 0
KTAS 220028Z 17015KT 17/M01 A2968 RMK A01 T01651011  RH  030%=      5-min Rain = 0
KTAS 220029Z 17014KT 16/M01 A2968 RMK A01 T01631011  RH  030%=      5-min Rain = 0
KTAS 220030Z 17015KT 16/M01 A2968 RMK A01 T01631011  RH  031%=      5-min Rain = 0
KTAS 220031Z 17016KT 16/M01 A2968 RMK A01 T01621011  RH  031%=      5-min Rain = 0
KTAS 220032Z 17013KT 16/M01 A2968 RMK A01 T01621011  RH  031%=      5-min Rain = 0
KTAS 220033Z 17015KT 16/M01 A2968 RMK A01 T01611011  RH  031%=      5-min Rain = 0
KTAS 220034Z 17015KT 16/M01 A2968 RMK A01 T01611011  RH  031%=      5-min Rain = 0
KTAS 220035Z 17015KT 16/M01 A2968 RMK A01 T01611010  RH  031%=      5-min Rain = 0
KTAS 220036Z 17015KT 16/M01 A2968 RMK A01 T01611010  RH  031%=      5-min Rain = 0
KTAS 220037Z 17014KT 16/M01 A2968 RMK A01 T01601010  RH  031%=      5-min Rain = 0
KTAS 220038Z 17014KT 16/M01 A2968 RMK A01 T01591010  RH  031%=      5-min Rain = 0
KTAS 220039Z 17013KT 16/M01 A2968 RMK A01 T01581010  RH  032%=      5-min Rain = 0
KTAS 220040Z 17012KT 16/M01 A2968 RMK A01 T01571010  RH  032%=      5-min Rain = 0
KTAS 220041Z 17014KT 16/M01 A2968 RMK A01 T01561010  RH  032%=      5-min Rain = 0
KTAS 220042Z 17013KT 16/M01 A2968 RMK A01 T01561010  RH  032%=      5-min Rain = 0
KTAS 220043Z 17014KT 16/M01 A2968 RMK A01 T01561009  RH  032%=      5-min Rain = 0
KTAS 220044Z 17013KT 16/M01 A2968 RMK A01 T01551009  RH  032%=      5-min Rain = 0
KTAS 220045Z 17014KT 16/M01 A2968 RMK A01 T01551009  RH  033%=      5-min Rain = 0
KTAS 220046Z 17014KT 16/M01 A2968 RMK A01 T01551009  RH  033%=      5-min Rain = 0
KTAS 220047Z 18014KT 16/M01 A2968 RMK A01 T01551009  RH  033%=      5-min Rain = 0
KTAS 220048Z 17014KT 15/M01 A2968 RMK A01 T01541009  RH  033%=      5-min Rain = 0
KTAS 220049Z 17014KT 15/M01 A2968 RMK A01 T01541008  RH  033%=      5-min Rain = 0
KTAS 220050Z 17013KT 15/M01 A2968 RMK A01 T01531008  RH  033%=      5-min Rain = 0
KTAS 220051Z 17016KT 15/M01 A2968 RMK A01 T01531008  RH  033%=      5-min Rain = 0
KTAS 220052Z 17014KT 15/M01 A2968 RMK A01 T01541008  RH  033%=      5-min Rain = 0
KTAS 220053Z 17014KT 15/M01 A2968 RMK A01 T01531008  RH  033%=      5-min Rain = 0
KTAS 220054Z 17015KT 15/M01 A2968 RMK A01 T01531008  RH  033%=      5-min Rain = 0
KTAS 220055Z 17014KT 15/M01 A2968 RMK A01 T01521008  RH  033%=      5-min Rain = 0
KTAS 220056Z 17014KT 15/M01 A2968 RMK A01 T01521008  RH  033%=      5-min Rain = 0
KTAS 220057Z 17014KT 15/M01 A2969 RMK A01 T01521009  RH  033%=      5-min Rain = 0
KTAS 220058Z 17015KT 15/M01 A2969 RMK A01 T01521009  RH  033%=      5-min Rain = 0
KTAS 220059Z 17013KT 15/M01 A2969 RMK A01 T01511009  RH  033%=      5-min Rain = 0
KTAS 220100Z 17014KT 15/M01 A2969 RMK A01 T01501009  RH  034%=      5-min Rain = 0
KTAS 220101Z 17014KT 15/M01 A2969 RMK A01 T01491009  RH  034%=      5-min Rain = 0
KTAS 220102Z 17015KT 15/M01 A2969 RMK A01 T01501009  RH  034%=      5-min Rain = 0
KTAS 220103Z 17015KT 15/M01 A2969 RMK A01 T01501009  RH  034%=      5-min Rain = 0
KTAS 220104Z 17017KT 15/M01 A2969 RMK A01 T01501008  RH  034%=      5-min Rain = 0
KTAS 220105Z 17017KT 15/M01 A2969 RMK A01 T01511008  RH  034%=      5-min Rain = 0
KTAS 220106Z 17015KT 15/M01 A2969 RMK A01 T01511008  RH  034%=      5-min Rain = 0
KTAS 220107Z 17017KT 15/M01 A2969 RMK A01 T01501008  RH  034%=      5-min Rain = 0
KTAS 220108Z 17015KT 15/M01 A2969 RMK A01 T01501007  RH  034%=      5-min Rain = 0
KTAS 220109Z 17014KT 15/M01 A2969 RMK A01 T01491007  RH  034%=      5-min Rain = 0
KTAS 220110Z 17016KT 15/M01 A2969 RMK A01 T01491007  RH  034%=      5-min Rain = 0
KTAS 220111Z 18018KT 15/M01 A2969 RMK A01 T01491007  RH  034%=      5-min Rain = 0
KTAS 220112Z 17018KT 15/M01 A2969 RMK A01 T01511006  RH  034%=      5-min Rain = 0
KTAS 220113Z 17019KT 15/M01 A2969 RMK A01 T01511006  RH  034%=      5-min Rain = 0
KTAS 220114Z 17016KT 15/M01 A2969 RMK A01 T01501006  RH  034%=      5-min Rain = 0
KTAS 220115Z 17018KT 15/M01 A2969 RMK A01 T01491006  RH  034%=      5-min Rain = 0
KTAS 220116Z 17015KT 15/M01 A2969 RMK A01 T01491006  RH  035%=      5-min Rain = 0
KTAS 220117Z 18020KT 15/M01 A2969 RMK A01 T01491006  RH  035%=      5-min Rain = 0
KTAS 220118Z 18016KT 15/M01 A2969 RMK A01 T01491006  RH  035%=      5-min Rain = 0
KTAS 220119Z 17016KT 15/M01 A2969 RMK A01 T01491006  RH  035%=      5-min Rain = 0
KTAS 220120Z 18014KT 15/M01 A2969 RMK A01 T01481006  RH  035%=      5-min Rain = 0
KTAS 220121Z 18016KT 15/M01 A2969 RMK A01 T01471006  RH  035%=      5-min Rain = 0
KTAS 220122Z 18016KT 15/M01 A2969 RMK A01 T01471006  RH  035%=      5-min Rain = 0
KTAS 220123Z 17018KT 15/M01 A2969 RMK A01 T01481006  RH  035%=      5-min Rain = 0
KTAS 220124Z 18018KT 15/M01 A2969 RMK A01 T01481006  RH  035%=      5-min Rain = 0
KTAS 220125Z 17017KT 15/M01 A2969 RMK A01 T01491006  RH  035%=      5-min Rain = 0
KTAS 220126Z 18015KT 15/M01 A2969 RMK A01 T01491006  RH  035%=      5-min Rain = 0
KTAS 220127Z 17017G25KT 15/M01 A2969 RMK A01 T01481006  RH  035%=      5-min Rain = 0
KTAS 220128Z 18019KT 15/M01 A2969 RMK A01 T01481007  RH  035%=      5-min Rain = 0
KTAS 220129Z 18014KT 15/M01 A2969 RMK A01 T01481007  RH  035%=      5-min Rain = 0
KTAS 220130Z 17016KT 15/M01 A2969 RMK A01 T01471007  RH  035%=      5-min Rain = 0
KTAS 220131Z 18016KT 15/M01 A2969 RMK A01 T01461007  RH  035%=      5-min Rain = 0
KTAS 220132Z 17015KT 15/M01 A2969 RMK A01 T01461007  RH  035%=      5-min Rain = 0
KTAS 220133Z 17015G20KT 15/M01 A2969 RMK A01 T01461007  RH  035%=      5-min Rain = 0
KTAS 220134Z 17017G22KT 15/M01 A2969 RMK A01 T01451007  RH  035%=      5-min Rain = 0
KTAS 220135Z 18015G20KT 15/M01 A2969 RMK A01 T01451007  RH  035%=      5-min Rain = 0
KTAS 220136Z 18016KT 15/M01 A2969 RMK A01 T01451007  RH  035%=      5-min Rain = 0
KTAS 220137Z 17017KT 15/M01 A2969 RMK A01 T01451007  RH  035%=      5-min Rain = 0
KTAS 220138Z 18017KT 15/M01 A2969 RMK A01 T01451007  RH  035%=      5-min Rain = 0
KTAS 220139Z 17016KT 15/M01 A2969 RMK A01 T01451007  RH  035%=      5-min Rain = 0
KTAS 220140Z 17016KT 14/M01 A2969 RMK A01 T01441007  RH  035%=      5-min Rain = 0
KTAS 220141Z 17017KT 14/M01 A2969 RMK A01 T01441007  RH  035%=      5-min Rain = 0
KTAS 220142Z 18018KT 15/M01 A2969 RMK A01 T01451008  RH  035%=      5-min Rain = 0
KTAS 220143Z 18017KT 14/M01 A2969 RMK A01 T01441008  RH  035%=      5-min Rain = 0
KTAS 220144Z 18017G22KT 14/M01 A2969 RMK A01 T01441008  RH  035%=      5-min Rain = 0
KTAS 220145Z 18014KT 14/M01 A2969 RMK A01 T01441008  RH  035%=      5-min Rain = 0
KTAS 220146Z 18017G23KT 14/M01 A2969 RMK A01 T01431008  RH  035%=      5-min Rain = 0
KTAS 220147Z 18017KT 14/M01 A2969 RMK A01 T01431008  RH  035%=      5-min Rain = 0
KTAS 220148Z 18018KT 14/M01 A2969 RMK A01 T01431008  RH  035%=      5-min Rain = 0
KTAS 220149Z 18017KT 14/M01 A2969 RMK A01 T01441009  RH  035%=      5-min Rain = 0
KTAS 220150Z 18018KT 14/M01 A2969 RMK A01 T01441009  RH  035%=      5-min Rain = 0
KTAS 220151Z 18016G22KT 14/M01 A2969 RMK A01 T01431009  RH  035%=      5-min Rain = 0
KTAS 220152Z 18019G24KT 14/M01 A2969 RMK A01 T01431009  RH  035%=      5-min Rain = 0
KTAS 220153Z 18019KT 14/M01 A2969 RMK A01 T01431009  RH  035%=      5-min Rain = 0
KTAS 220154Z 18016KT 14/M01 A2969 RMK A01 T01431009  RH  035%=      5-min Rain = 0
KTAS 220155Z 18018KT 14/M01 A2969 RMK A01 T01421009  RH  035%=      5-min Rain = 0
KTAS 220156Z 18019G24KT 14/M01 A2969 RMK A01 T01421009  RH  035%=      5-min Rain = 0
KTAS 220157Z 18019KT 14/M01 A2969 RMK A01 T01421009  RH  035%=      5-min Rain = 0
KTAS 220158Z 18018KT 14/M01 A2969 RMK A01 T01431009  RH  035%=      5-min Rain = 0
KTAS 220159Z 18018KT 14/M01 A2969 RMK A01 T01421009  RH  035%=      5-min Rain = 0
KTAS 220200Z 18017KT 14/M01 A2969 RMK A01 T01421009  RH  035%=      5-min Rain = 0
KTAS 220201Z 18021KT 14/M01 A2969 RMK A01 T01421008  RH  035%=      5-min Rain = 0
KTAS 220202Z 18019G24KT 14/M01 A2969 RMK A01 T01421008  RH  036%=      5-min Rain = 0
KTAS 220203Z 18022KT 14/M01 A2969 RMK A01 T01421008  RH  036%=      5-min Rain = 0
KTAS 220204Z 18020KT 14/M01 A2969 RMK A01 T01421008  RH  035%=      5-min Rain = 0
KTAS 220205Z 18018KT 14/M01 A2969 RMK A01 T01421008  RH  036%=      5-min Rain = 0
KTAS 220206Z 18020KT 14/M01 A2969 RMK A01 T01421008  RH  036%=      5-min Rain = 0
KTAS 220207Z 18022KT 14/M01 A2969 RMK A01 T01421009  RH  036%=      5-min Rain = 0
KTAS 220208Z 18021G27KT 14/M01 A297 RMK A01 T01431009  RH  035%=      5-min Rain = 0
KTAS 220209Z 18019G24KT 14/M01 A297 RMK A01 T01421009  RH  035%=      5-min Rain = 0
KTAS 220210Z 18021KT 14/M01 A297 RMK A01 T01411009  RH  036%=      5-min Rain = 0
KTAS 220211Z 18021KT 14/M01 A2969 RMK A01 T01411009  RH  036%=      5-min Rain = 0
KTAS 220212Z 18019KT 14/M01 A2969 RMK A01 T01421009  RH  035%=      5-min Rain = 0
KTAS 220213Z 18020KT 14/M01 A2969 RMK A01 T01411009  RH  036%=      5-min Rain = 0
KTAS 220214Z 18020G25KT 14/M01 A2969 RMK A01 T01411009  RH  036%=      5-min Rain = 0
KTAS 220215Z 18019KT 14/M01 A2969 RMK A01 T01411009  RH  036%=      5-min Rain = 0
KTAS 220216Z 18017KT 14/M01 A2969 RMK A01 T01411009  RH  036%=      5-min Rain = 0
KTAS 220217Z 18017G23KT 14/M01 A2969 RMK A01 T01401009  RH  036%=      5-min Rain = 0
KTAS 220218Z 18019KT 14/M01 A2969 RMK A01 T01391009  RH  036%=      5-min Rain = 0
KTAS 220219Z 18020KT 14/M01 A2969 RMK A01 T01401009  RH  036%=      5-min Rain = 0
KTAS 220220Z 18019KT 14/M01 A2969 RMK A01 T01401009  RH  036%=      5-min Rain = 0
KTAS 220221Z 18019KT 14/M01 A2969 RMK A01 T01401009  RH  036%=      5-min Rain = 0
KTAS 220222Z 18022KT 14/M01 A2969 RMK A01 T01401009  RH  036%=      5-min Rain = 0
KTAS 220223Z 18018KT 14/M01 A2969 RMK A01 T01401009  RH  036%=      5-min Rain = 0
KTAS 220224Z 18017KT 14/M01 A2969 RMK A01 T01391009  RH  036%=      5-min Rain = 0
KTAS 220225Z 18018KT 14/M01 A2969 RMK A01 T01391009  RH  036%=      5-min Rain = 0
KTAS 220226Z 18019G24KT 14/M01 A2969 RMK A01 T01391009  RH  036%=      5-min Rain = 0
KTAS 220227Z 18019KT 14/M01 A2969 RMK A01 T01391009  RH  036%=      5-min Rain = 0
KTAS 220228Z 18016G23KT 14/M01 A2969 RMK A01 T01391009  RH  036%=      5-min Rain = 0
KTAS 220229Z 18020G25KT 14/M01 A2969 RMK A01 T01381009  RH  036%=      5-min Rain = 0
KTAS 220230Z 18018KT 14/M01 A2969 RMK A01 T01381009  RH  036%=      5-min Rain = 0
KTAS 220231Z 18020KT 14/M01 A2969 RMK A01 T01381009  RH  036%=      5-min Rain = 0
KTAS 220232Z 18019KT 14/M01 A2969 RMK A01 T01381009  RH  036%=      5-min Rain = 0
KTAS 220233Z 18019KT 14/M01 A2969 RMK A01 T01381009  RH  036%=      5-min Rain = 0
KTAS 220234Z 18021KT 14/M01 A2969 RMK A01 T01381009  RH  036%=      5-min Rain = 0
KTAS 220235Z 18017G22KT 14/M01 A2969 RMK A01 T01381009  RH  036%=      5-min Rain = 0
KTAS 220236Z 18020KT 14/M01 A2969 RMK A01 T01371009  RH  036%=      5-min Rain = 0
KTAS 220237Z 18017KT 14/M01 A2969 RMK A01 T01371009  RH  036%=      5-min Rain = 0
KTAS 220238Z 18016G21KT 14/M01 A2969 RMK A01 T01361009  RH  037%=      5-min Rain = 0
KTAS 220239Z 18017KT 14/M01 A2969 RMK A01 T01351009  RH  037%=      5-min Rain = 0
KTAS 220240Z 18017KT 14/M01 A2969 RMK A01 T01351009  RH  037%=      5-min Rain = 0
KTAS 220241Z 18017KT 14/M01 A2969 RMK A01 T01351009  RH  037%=      5-min Rain = 0
KTAS 220242Z 18020KT 14/M01 A2969 RMK A01 T01351009  RH  037%=      5-min Rain = 0
KTAS 220243Z 18018G23KT 14/M01 A2969 RMK A01 T01351009  RH  037%=      5-min Rain = 0
KTAS 220244Z 18019KT 14/M01 A2969 RMK A01 T01351009  RH  037%=      5-min Rain = 0
KTAS 220245Z 18016G22KT 14/M01 A2969 RMK A01 T01351009  RH  037%=      5-min Rain = 0
KTAS 220246Z 17018KT 13/M01 A2969 RMK A01 T01341009  RH  037%=      5-min Rain = 0
KTAS 220247Z 17018KT 13/M01 A2969 RMK A01 T01341009  RH  037%=      5-min Rain = 0
KTAS 220248Z 18018KT 13/M01 A2969 RMK A01 T01331009  RH  037%=      5-min Rain = 0
KTAS 220249Z 18019KT 13/M01 A2969 RMK A01 T01331009  RH  038%=      5-min Rain = 0
KTAS 220250Z 18019KT 13/M01 A2969 RMK A01 T01331009  RH  038%=      5-min Rain = 0
KTAS 220251Z 17015KT 13/M01 A2969 RMK A01 T01321009  RH  038%=      5-min Rain = 0
KTAS 220252Z 17018KT 13/M01 A2969 RMK A01 T01321009  RH  038%=      5-min Rain = 0
KTAS 220253Z 17018KT 13/M01 A2969 RMK A01 T01321009  RH  038%=      5-min Rain = 0
KTAS 220254Z 18018KT 13/M01 A2969 RMK A01 T01311008  RH  038%=      5-min Rain = 0
KTAS 220255Z 18020G25KT 13/M01 A2969 RMK A01 T01311008  RH  038%=      5-min Rain = 0
KTAS 220256Z 18019KT 13/M01 A2969 RMK A01 T01311008  RH  038%=      5-min Rain = 0
KTAS 220257Z 18016KT 13/M01 A2969 RMK A01 T01311008  RH  038%=      5-min Rain = 0
KTAS 220258Z 18019KT 13/M01 A2969 RMK A01 T01311008  RH  038%=      5-min Rain = 0
KTAS 220259Z 18021KT 13/M01 A2969 RMK A01 T01311008  RH  038%=      5-min Rain = 0
KTAS 220300Z 18020G25KT 13/M01 A2969 RMK A01 T01311008  RH  038%=      5-min Rain = 0
KTAS 220301Z 18020G25KT 13/M01 A2969 RMK A01 T01311008  RH  038%=      5-min Rain = 0
KTAS 220302Z 18019KT 13/M01 A2969 RMK A01 T01311008  RH  038%=      5-min Rain = 0
KTAS 220303Z 18020KT 13/M01 A2969 RMK A01 T01311008  RH  038%=      5-min Rain = 0
KTAS 220304Z 18015G20KT 13/M01 A2969 RMK A01 T01301008  RH  039%=      5-min Rain = 0
KTAS 220305Z 18015G21KT 13/M01 A2969 RMK A01 T01291007  RH  039%=      5-min Rain = 0
KTAS 220306Z 18017KT 13/M01 A2969 RMK A01 T01291007  RH  039%=      5-min Rain = 0
KTAS 220307Z 18018KT 13/M01 A2969 RMK A01 T01291007  RH  039%=      5-min Rain = 0
KTAS 220308Z 18017KT 13/M01 A2969 RMK A01 T01281007  RH  039%=      5-min Rain = 0
KTAS 220309Z 18020KT 13/M01 A2969 RMK A01 T01281007  RH  039%=      5-min Rain = 0
KTAS 220310Z 18018G24KT 13/M01 A2969 RMK A01 T01281007  RH  039%=      5-min Rain = 0
KTAS 220311Z 17017G22KT 13/M01 A2969 RMK A01 T01271007  RH  040%=      5-min Rain = 0
KTAS 220312Z 18016G21KT 13/M01 A2969 RMK A01 T01271007  RH  040%=      5-min Rain = 0
KTAS 220313Z 18019KT 13/M01 A2969 RMK A01 T01261006  RH  040%=      5-min Rain = 0
KTAS 220314Z 18019KT 13/M01 A2969 RMK A01 T01261006  RH  040%=      5-min Rain = 0
KTAS 220315Z 18017KT 13/M01 A297 RMK A01 T01261006  RH  040%=      5-min Rain = 0
KTAS 220316Z 18019G27KT 13/M01 A297 RMK A01 T01261006  RH  040%=      5-min Rain = 0
KTAS 220317Z 18020KT 13/M01 A2969 RMK A01 T01261005  RH  040%=      5-min Rain = 0
KTAS 220318Z 18022G28KT 13/M01 A2969 RMK A01 T01261005  RH  040%=      5-min Rain = 0
KTAS 220319Z 18021G26KT 13/M01 A2969 RMK A01 T01271005  RH  040%=      5-min Rain = 0
KTAS 220320Z 18019KT 13/M01 A2969 RMK A01 T01261005  RH  040%=      5-min Rain = 0
KTAS 220321Z 18017G22KT 13/M01 A2969 RMK A01 T01251005  RH  041%=      5-min Rain = 0
KTAS 220322Z 18019KT 13/M01 A2969 RMK A01 T01251005  RH  041%=      5-min Rain = 0
KTAS 220323Z 18018KT 13/M01 A2969 RMK A01 T01251005  RH  041%=      5-min Rain = 0
KTAS 220324Z 18018KT 12/M01 A2969 RMK A01 T01241005  RH  041%=      5-min Rain = 0
KTAS 220325Z 18019KT 12/M00 A2969 RMK A01 T01241004  RH  041%=      5-min Rain = 0
KTAS 220326Z 18017KT 12/M00 A2969 RMK A01 T01241004  RH  041%=      5-min Rain = 0
KTAS 220327Z 18018G24KT 12/M00 A2969 RMK A01 T01241004  RH  041%=      5-min Rain = 0
KTAS 220328Z 18021KT 12/M00 A2969 RMK A01 T01241004  RH  041%=      5-min Rain = 0
KTAS 220329Z 18021G26KT 12/M00 A2969 RMK A01 T01241004  RH  041%=      5-min Rain = 0
KTAS 220330Z 17019KT 12/M00 A2969 RMK A01 T01241004  RH  041%=      5-min Rain = 0
KTAS 220331Z 18019G24KT 12/M00 A2969 RMK A01 T01241003  RH  042%=      5-min Rain = 0
KTAS 220332Z 18017KT 12/M00 A2969 RMK A01 T01221003  RH  042%=      5-min Rain = 0
KTAS 220333Z 18018G24KT 12/M00 A2969 RMK A01 T01221003  RH  042%=      5-min Rain = 0
KTAS 220334Z 18018KT 12/M00 A2969 RMK A01 T01221003  RH  042%=      5-min Rain = 0
KTAS 220335Z 18022KT 12/M00 A2969 RMK A01 T01221003  RH  042%=      5-min Rain = 0
KTAS 220336Z 18018KT 12/M00 A2969 RMK A01 T01221003  RH  042%=      5-min Rain = 0
KTAS 220337Z 18017G22KT 12/M00 A2969 RMK A01 T01211003  RH  042%=      5-min Rain = 0
KTAS 220338Z 18018G23KT 12/M00 A2969 RMK A01 T01201002  RH  043%=      5-min Rain = 0
KTAS 220339Z 18019KT 12/M00 A2969 RMK A01 T01201002  RH  043%=      5-min Rain = 0
KTAS 220340Z 18017KT 12/M00 A2969 RMK A01 T01201002  RH  043%=      5-min Rain = 0
KTAS 220341Z 18017KT 12/M00 A2969 RMK A01 T01191002  RH  043%=      5-min Rain = 0
KTAS 220342Z 18019KT 12/M00 A2969 RMK A01 T01191002  RH  043%=      5-min Rain = 0
KTAS 220343Z 18018KT 12/M00 A2969 RMK A01 T01191001  RH  043%=      5-min Rain = 0
KTAS 220344Z 18022KT 12/M00 A2969 RMK A01 T01191001  RH  043%=      5-min Rain = 0
KTAS 220345Z 17017KT 12/M00 A2969 RMK A01 T01191001  RH  043%=      5-min Rain = 0
KTAS 220346Z 17019KT 12/M00 A2969 RMK A01 T01191001  RH  044%=      5-min Rain = 0
KTAS 220347Z 18019KT 12/M00 A2969 RMK A01 T01181001  RH  044%=      5-min Rain = 0
KTAS 220348Z 18022KT 12/M00 A2969 RMK A01 T01181001  RH  044%=      5-min Rain = 0
KTAS 220349Z 17020G25KT 12/00 A2969 RMK A01 T011800-0  RH  044%=      5-min Rain = 0
KTAS 220350Z 17022KT 12/00 A2969 RMK A01 T011800-0  RH  044%=      5-min Rain = 0
KTAS 220351Z 18020KT 12/00 A2969 RMK A01 T011800-0  RH  044%=      5-min Rain = 0
KTAS 220352Z 18020G26KT 12/00 A2969 RMK A01 T011800-0  RH  044%=      5-min Rain = 0
KTAS 220353Z 18019KT 12/00 A2969 RMK A01 T01180000  RH  044%=      5-min Rain = 0
KTAS 220354Z 17018G24KT 12/00 A2969 RMK A01 T01170000  RH  045%=      5-min Rain = 0
KTAS 220355Z 18019KT 12/00 A2969 RMK A01 T01170000  RH  045%=      5-min Rain = 0
KTAS 220356Z 17021G26KT 12/00 A2969 RMK A01 T01170000  RH  045%=      5-min Rain = 0
KTAS 220357Z 17024KT 12/00 A2969 RMK A01 T01170001  RH  045%=      5-min Rain = 0
KTAS 220358Z 18021G26KT 12/00 A2969 RMK A01 T01170001  RH  045%=      5-min Rain = 0
KTAS 220359Z 17021G27KT 12/00 A2969 RMK A01 T01170001  RH  045%=      5-min Rain = 0
KTAS 220400Z 18023KT 12/00 A2969 RMK A01 T01170001  RH  045%=      5-min Rain = 0
KTAS 220401Z 18021KT 12/00 A2969 RMK A01 T01170001  RH  045%=      5-min Rain = 0
KTAS 220402Z 18021G30KT 12/00 A2968 RMK A01 T01160001  RH  045%=      5-min Rain = 0
KTAS 220403Z 17017G24KT 12/00 A2968 RMK A01 T01160001  RH  045%=      5-min Rain = 0
KTAS 220404Z 17018G24KT 12/00 A2969 RMK A01 T01150001  RH  045%=      5-min Rain = 0
KTAS 220405Z 18021G27KT 12/00 A2969 RMK A01 T01150001  RH  046%=      5-min Rain = 0
KTAS 220406Z 18018G25KT 12/00 A2969 RMK A01 T01150001  RH  046%=      5-min Rain = 0
KTAS 220407Z 17019KT 11/00 A2968 RMK A01 T01140002  RH  046%=      5-min Rain = 0
KTAS 220408Z 17022KT 11/00 A2968 RMK A01 T01140002  RH  046%=      5-min Rain = 0
KTAS 220409Z 17020KT 11/00 A2968 RMK A01 T01140002  RH  046%=      5-min Rain = 0
KTAS 220410Z 17019KT 11/00 A2968 RMK A01 T01140002  RH  046%=      5-min Rain = 0
KTAS 220411Z 18019KT 11/00 A2968 RMK A01 T01140002  RH  046%=      5-min Rain = 0
KTAS 220412Z 18020KT 11/00 A2968 RMK A01 T01140002  RH  046%=      5-min Rain = 0
KTAS 220413Z 17022G27KT 11/00 A2968 RMK A01 T01140003  RH  046%=      5-min Rain = 0
KTAS 220414Z 18019KT 11/00 A2968 RMK A01 T01140003  RH  046%=      5-min Rain = 0
KTAS 220415Z 18019KT 11/00 A2968 RMK A01 T01130003  RH  047%=      5-min Rain = 0
KTAS 220416Z 18020G26KT 11/00 A2968 RMK A01 T01130003  RH  047%=      5-min Rain = 0
KTAS 220417Z 18021KT 11/00 A2968 RMK A01 T01130003  RH  047%=      5-min Rain = 0
KTAS 220418Z 18021KT 11/00 A2968 RMK A01 T01130003  RH  047%=      5-min Rain = 0
KTAS 220419Z 18019G24KT 11/00 A2968 RMK A01 T01130004  RH  047%=      5-min Rain = 0
KTAS 220420Z 18018KT 11/00 A2968 RMK A01 T01120003  RH  047%=      5-min Rain = 0
KTAS 220421Z 18020KT 11/00 A2968 RMK A01 T01120004  RH  047%=      5-min Rain = 0
KTAS 220422Z 18021G27KT 11/00 A2968 RMK A01 T01120004  RH  047%=      5-min Rain = 0
KTAS 220423Z 18020KT 11/00 A2968 RMK A01 T01120004  RH  047%=      5-min Rain = 0
KTAS 220424Z 18019KT 11/00 A2968 RMK A01 T01120004  RH  047%=      5-min Rain = 0
KTAS 220425Z 18019KT 11/01 A2968 RMK A01 T01120005  RH  048%=      5-min Rain = 0
KTAS 220426Z 18020G26KT 11/01 A2968 RMK A01 T01120005  RH  048%=      5-min Rain = 0
KTAS 220427Z 18022KT 11/01 A2968 RMK A01 T01120005  RH  048%=      5-min Rain = 0
KTAS 220428Z 18021G26KT 11/01 A2968 RMK A01 T01120005  RH  048%=      5-min Rain = 0
KTAS 220429Z 18017KT 11/01 A2968 RMK A01 T01120005  RH  048%=      5-min Rain = 0
KTAS 220430Z 18018KT 11/01 A2968 RMK A01 T01110005  RH  048%=      5-min Rain = 0
KTAS 220431Z 18020G25KT 11/01 A2968 RMK A01 T01110005  RH  048%=      5-min Rain = 0
KTAS 220432Z 18021G27KT 11/01 A2968 RMK A01 T01120006  RH  048%=      5-min Rain = 0
KTAS 220433Z 18021KT 11/01 A2968 RMK A01 T01120006  RH  048%=      5-min Rain = 0
KTAS 220434Z 18020KT 11/01 A2968 RMK A01 T01120006  RH  048%=      5-min Rain = 0
KTAS 220435Z 18020KT 11/01 A2968 RMK A01 T01120006  RH  048%=      5-min Rain = 0
KTAS 220436Z 18019G24KT 11/01 A2968 RMK A01 T01110006  RH  048%=      5-min Rain = 0
KTAS 220437Z 18018G24KT 11/01 A2968 RMK A01 T01110006  RH  048%=      5-min Rain = 0
KTAS 220438Z 18020G26KT 11/01 A2968 RMK A01 T01110007  RH  049%=      5-min Rain = 0
KTAS 220439Z 18021KT 11/01 A2968 RMK A01 T01110007  RH  049%=      5-min Rain = 0
KTAS 220440Z 18022KT 11/01 A2968 RMK A01 T01120007  RH  049%=      5-min Rain = 0
KTAS 220441Z 18022KT 11/01 A2968 RMK A01 T01120007  RH  049%=      5-min Rain = 0
KTAS 220442Z 17018G25KT 11/01 A2968 RMK A01 T01120008  RH  049%=      5-min Rain = 0
KTAS 220443Z 18018G23KT 11/01 A2968 RMK A01 T01110007  RH  049%=      5-min Rain = 0
KTAS 220444Z 18020G25KT 11/01 A2968 RMK A01 T01100008  RH  049%=      5-min Rain = 0
KTAS 220445Z 18021G27KT 11/01 A2968 RMK A01 T01110008  RH  049%=      5-min Rain = 0
KTAS 220446Z 18019G24KT 11/01 A2968 RMK A01 T01110008  RH  049%=      5-min Rain = 0
KTAS 220447Z 18016KT 11/01 A2968 RMK A01 T01100008  RH  049%=      5-min Rain = 0
KTAS 220448Z 18019KT 11/01 A2968 RMK A01 T01090008  RH  050%=      5-min Rain = 0
KTAS 220449Z 18021KT 11/01 A2968 RMK A01 T01090008  RH  050%=      5-min Rain = 0
KTAS 220450Z 17020G26KT 11/01 A2968 RMK A01 T01100009  RH  050%=      5-min Rain = 0
KTAS 220451Z 18018KT 11/01 A2968 RMK A01 T01100009  RH  050%=      5-min Rain = 0
KTAS 220452Z 18019KT 11/01 A2968 RMK A01 T01090009  RH  050%=      5-min Rain = 0
KTAS 220453Z 18020KT 11/01 A2968 RMK A01 T01090009  RH  050%=      5-min Rain = 0
KTAS 220454Z 18020KT 11/01 A2968 RMK A01 T01090009  RH  050%=      5-min Rain = 0
KTAS 220455Z 18020KT 11/01 A2968 RMK A01 T01090009  RH  050%=      5-min Rain = 0
KTAS 220456Z 18017KT 11/01 A2968 RMK A01 T01090010  RH  050%=      5-min Rain = 0
KTAS 220457Z 18019KT 11/01 A2968 RMK A01 T01080010  RH  050%=      5-min Rain = 0
KTAS 220458Z 18021KT 11/01 A2968 RMK A01 T01090010  RH  051%=      5-min Rain = 0
KTAS 220459Z 18020KT 11/01 A2968 RMK A01 T01090010  RH  051%=      5-min Rain = 0
KTAS 220500Z 18016KT 11/01 A2968 RMK A01 T01090011  RH  051%=      5-min Rain = 0
KTAS 220501Z 18017G22KT 11/01 A2968 RMK A01 T01080011  RH  051%=      5-min Rain = 0
KTAS 220502Z 18019G25KT 11/01 A2968 RMK A01 T01080011  RH  051%=      5-min Rain = 0
KTAS 220503Z 18020KT 11/01 A2968 RMK A01 T01090011  RH  051%=      5-min Rain = 0
KTAS 220504Z 18021KT 11/01 A2968 RMK A01 T01090012  RH  051%=      5-min Rain = 0
KTAS 220505Z 18017KT 11/01 A2969 RMK A01 T01090012  RH  051%=      5-min Rain = 0
KTAS 220506Z 18018G24KT 11/01 A2969 RMK A01 T01080012  RH  051%=      5-min Rain = 0
KTAS 220507Z 18020G25KT 11/01 A2969 RMK A01 T01080012  RH  051%=      5-min Rain = 0
KTAS 220508Z 18017G23KT 11/01 A2969 RMK A01 T01080012  RH  052%=      5-min Rain = 0
KTAS 220509Z 18019KT 11/01 A2969 RMK A01 T01080013  RH  052%=      5-min Rain = 0
KTAS 220510Z 18017KT 11/01 A2969 RMK A01 T01090013  RH  052%=      5-min Rain = 0
KTAS 220511Z 19019KT 11/01 A2969 RMK A01 T01080013  RH  052%=      5-min Rain = 0
KTAS 220512Z 19020KT 11/01 A2969 RMK A01 T01080014  RH  052%=      5-min Rain = 0
KTAS 220513Z 19018KT 11/01 A2969 RMK A01 T01090014  RH  052%=      5-min Rain = 0
KTAS 220514Z 19016KT 11/01 A2969 RMK A01 T01090014  RH  052%=      5-min Rain = 0
KTAS 220515Z 19018KT 11/01 A2969 RMK A01 T01080014  RH  052%=      5-min Rain = 0
KTAS 220516Z 18018G24KT 11/01 A2969 RMK A01 T01080014  RH  052%=      5-min Rain = 0
KTAS 220517Z 19016KT 11/01 A2969 RMK A01 T01080014  RH  052%=      5-min Rain = 0
KTAS 220518Z 19015KT 11/01 A2969 RMK A01 T01070014  RH  053%=      5-min Rain = 0
KTAS 220519Z 19018KT 11/02 A2969 RMK A01 T01070015  RH  053%=      5-min Rain = 0
KTAS 220520Z 19015KT 11/02 A2969 RMK A01 T01070015  RH  053%=      5-min Rain = 0
KTAS 220521Z 18015KT 11/02 A297 RMK A01 T01070015  RH  053%=      5-min Rain = 0
KTAS 220522Z 19018G23KT 11/02 A297 RMK A01 T01070016  RH  053%=      5-min Rain = 0
KTAS 220523Z 18018KT 11/02 A2969 RMK A01 T01070016  RH  053%=      5-min Rain = 0
KTAS 220524Z 19019KT 11/02 A2969 RMK A01 T01070016  RH  053%=      5-min Rain = 0
KTAS 220525Z 19018KT 11/02 A297 RMK A01 T01080017  RH  053%=      5-min Rain = 0
KTAS 220526Z 18021KT 11/02 A297 RMK A01 T01080017  RH  054%=      5-min Rain = 0
KTAS 220527Z 18020KT 11/02 A297 RMK A01 T01080018  RH  053%=      5-min Rain = 0
KTAS 220528Z 19019KT 11/02 A297 RMK A01 T01080018  RH  054%=      5-min Rain = 0
KTAS 220529Z 18018KT 11/02 A297 RMK A01 T01080018  RH  054%=      5-min Rain = 0
KTAS 220530Z 18018KT 11/02 A297 RMK A01 T01070018  RH  054%=      5-min Rain = 0
KTAS 220531Z 18019KT 11/02 A297 RMK A01 T01070018  RH  054%=      5-min Rain = 0
KTAS 220532Z 18017KT 11/02 A297 RMK A01 T01070018  RH  054%=      5-min Rain = 0
KTAS 220533Z 18019KT 11/02 A297 RMK A01 T01070019  RH  054%=      5-min Rain = 0
KTAS 220534Z 19018KT 11/02 A297 RMK A01 T01070019  RH  055%=      5-min Rain = 0
KTAS 220535Z 19016G21KT 11/02 A297 RMK A01 T01060019  RH  055%=      5-min Rain = 0
KTAS 220536Z 19017KT 11/02 A297 RMK A01 T01060019  RH  055%=      5-min Rain = 0
KTAS 220537Z 19017KT 11/02 A297 RMK A01 T01060020  RH  055%=      5-min Rain = 0
KTAS 220538Z 18015KT 11/02 A297 RMK A01 T01050019  RH  055%=      5-min Rain = 0
KTAS 220539Z 18017KT 11/02 A297 RMK A01 T01050020  RH  056%=      5-min Rain = 0
KTAS 220540Z 18019G25KT 11/02 A297 RMK A01 T01050020  RH  056%=      5-min Rain = 0
KTAS 220541Z 18017G23KT 11/02 A297 RMK A01 T01050021  RH  056%=      5-min Rain = 0
KTAS 220542Z 18018KT 11/02 A297 RMK A01 T01060021  RH  056%=      5-min Rain = 0
KTAS 220543Z 19018KT 11/02 A297 RMK A01 T01050021  RH  056%=      5-min Rain = 0
KTAS 220544Z 18015KT 11/02 A297 RMK A01 T01050021  RH  056%=      5-min Rain = 0
KTAS 220545Z 18017KT 10/02 A297 RMK A01 T01040021  RH  056%=      5-min Rain = 0
KTAS 220546Z 18018G23KT 10/02 A297 RMK A01 T01040021  RH  056%=      5-min Rain = 0
KTAS 220547Z 18017KT 11/02 A297 RMK A01 T01050022  RH  056%=      5-min Rain = 0
KTAS 220548Z 19015KT 10/02 A297 RMK A01 T01040021  RH  056%=      5-min Rain = 0
KTAS 220549Z 19015KT 10/02 A297 RMK A01 T01030021  RH  057%=      5-min Rain = 0
KTAS 220550Z 18017KT 10/02 A297 RMK A01 T01030022  RH  057%=      5-min Rain = 0
KTAS 220551Z 19018KT 10/02 A297 RMK A01 T01040022  RH  057%=      5-min Rain = 0
KTAS 220552Z 19016KT 10/02 A297 RMK A01 T01040022  RH  057%=      5-min Rain = 0
KTAS 220553Z 19015G20KT 10/02 A297 RMK A01 T01040022  RH  057%=      5-min Rain = 0
KTAS 220554Z 18015KT 10/02 A297 RMK A01 T01030022  RH  057%=      5-min Rain = 0
KTAS 220555Z 18017KT 10/02 A297 RMK A01 T01030022  RH  057%=      5-min Rain = 0
KTAS 220556Z 18018KT 10/02 A297 RMK A01 T01030023  RH  057%=      5-min Rain = 0
KTAS 220557Z 18016KT 10/02 A297 RMK A01 T01040023  RH  057%=      5-min Rain = 0
KTAS 220558Z 18017KT 10/02 A297 RMK A01 T01030022  RH  057%=      5-min Rain = 0
KTAS 220559Z 18016KT 10/02 A297 RMK A01 T01030022  RH  057%=      5-min Rain = 0

Page generated in 0.1328 seconds.